Time,TemperatureF,DewpointF,PressureIn,WindDirection,WindDirectionDegrees,WindSpeedMPH,WindSpeedGustMPH,Humidity,HourlyPrecipIn,Conditions,Clouds,dailyrainin,SoftwareType,DateUTC
2013-04-05 00:00:00,40.3,31.3,30.03,NNW,330,0.0,2.0,70,0.00,,---,0.00,VWS V14.01,2013-04-05 05:00:00,
2013-04-05 00:02:00,40.2,31.2,30.03,NNW,330,0.0,2.0,70,0.00,,---,0.00,VWS V14.01,2013-04-05 05:02:00,
2013-04-05 00:04:00,40.2,30.5,30.03,NNW,330,0.0,2.0,68,0.00,,---,0.00,VWS V14.01,2013-04-05 05:04:00,
2013-04-05 00:05:00,40.0,30.7,30.03,NNW,330,0.0,2.0,69,0.00,,---,0.00,VWS V14.01,2013-04-05 05:05:00,
2013-04-05 00:07:00,39.9,30.9,30.03,NNW,330,0.0,2.0,70,0.00,,---,0.00,VWS V14.01,2013-04-05 05:07:00,
2013-04-05 00:09:00,39.7,30.4,30.03,NNW,330,1.0,2.0,69,0.00,,---,0.00,VWS V14.01,2013-04-05 05:09:00,
2013-04-05 00:11:00,39.5,30.9,30.03,NNW,330,2.0,2.0,71,0.00,,---,0.00,VWS V14.01,2013-04-05 05:11:00,
2013-04-05 00:12:00,39.5,30.2,30.03,NNW,330,1.0,2.0,69,0.00,,---,0.00,VWS V14.01,2013-04-05 05:12:00,
2013-04-05 00:14:00,39.5,29.8,30.03,NNW,330,0.0,2.0,68,0.00,,---,0.00,VWS V14.01,2013-04-05 05:14:00,
2013-04-05 00:15:00,39.7,30.0,30.03,NNW,330,0.0,2.0,68,0.00,,---,0.00,VWS V14.01,2013-04-05 05:15:00,
2013-04-05 00:17:00,39.7,30.4,30.03,NNW,330,0.0,2.0,69,0.00,,---,0.00,VWS V14.01,2013-04-05 05:17:00,
2013-04-05 00:19:00,39.7,30.0,30.03,NNW,330,0.0,2.0,68,0.00,,---,0.00,VWS V14.01,2013-04-05 05:19:00,
2013-04-05 00:20:00,39.8,30.1,30.03,NNW,330,0.0,2.0,68,0.00,,---,0.00,VWS V14.01,2013-04-05 05:20:00,
2013-04-05 00:22:00,39.9,29.9,30.03,NNW,330,0.0,2.0,67,0.00,,---,0.00,VWS V14.01,2013-04-05 05:22:00,
2013-04-05 00:24:00,39.9,30.2,30.03,NNW,330,0.0,2.0,68,0.00,,---,0.00,VWS V14.01,2013-04-05 05:24:00,
2013-04-05 00:25:00,39.8,30.1,30.03,NNW,330,0.0,2.0,68,0.00,,---,0.00,VWS V14.01,2013-04-05 05:25:00,
2013-04-05 00:26:00,39.8,30.5,30.03,NNW,330,0.0,2.0,69,0.00,,---,0.00,VWS V14.01,2013-04-05 05:26:00,
2013-04-05 00:27:00,39.5,30.5,30.03,NNW,330,0.0,0.0,70,0.00,,---,0.00,VWS V14.01,2013-04-05 05:27:00,
2013-04-05 00:29:00,39.1,30.9,30.03,NNW,330,0.0,1.0,72,0.00,,---,0.00,VWS V14.01,2013-04-05 05:29:00,
2013-04-05 00:30:00,39.0,30.8,30.03,NNW,330,0.0,1.0,72,0.00,,---,0.00,VWS V14.01,2013-04-05 05:30:00,
2013-04-05 00:31:00,38.8,30.2,30.03,NNW,330,0.0,1.0,71,0.00,,---,0.00,VWS V14.01,2013-04-05 05:31:00,
2013-04-05 00:33:00,38.6,30.0,30.03,NNW,330,1.0,2.0,71,0.00,,---,0.00,VWS V14.01,2013-04-05 05:33:00,
2013-04-05 00:34:00,38.6,30.0,30.03,NNW,330,1.0,2.0,71,0.00,,---,0.00,VWS V14.01,2013-04-05 05:34:00,
2013-04-05 00:35:00,38.6,29.7,30.03,NNW,330,1.0,2.0,70,0.00,,---,0.00,VWS V14.01,2013-04-05 05:35:00,
2013-04-05 00:36:00,38.6,29.7,30.03,NNW,330,0.0,2.0,70,0.00,,---,0.00,VWS V14.01,2013-04-05 05:36:00,
2013-04-05 00:38:00,38.8,29.5,30.03,NNW,330,0.0,2.0,69,0.00,,---,0.00,VWS V14.01,2013-04-05 05:38:00,
2013-04-05 00:40:00,38.9,29.6,30.03,NNW,330,0.0,2.0,69,0.00,,---,0.00,VWS V14.01,2013-04-05 05:40:00,
2013-04-05 00:41:00,39.0,29.4,30.03,NNW,330,0.0,2.0,68,0.00,,---,0.00,VWS V14.01,2013-04-05 05:41:00,
2013-04-05 00:43:00,39.1,29.8,30.03,NNW,330,0.0,2.0,69,0.00,,---,0.00,VWS V14.01,2013-04-05 05:43:00,
2013-04-05 00:45:00,38.9,30.0,30.03,NNW,330,0.0,2.0,70,0.00,,---,0.00,VWS V14.01,2013-04-05 05:45:00,
2013-04-05 00:46:00,38.9,29.6,30.03,NNW,330,0.0,2.0,69,0.00,,---,0.00,VWS V14.01,2013-04-05 05:46:00,
2013-04-05 00:48:00,38.8,29.9,30.03,NNW,330,0.0,2.0,70,0.00,,---,0.00,VWS V14.01,2013-04-05 05:48:00,
2013-04-05 00:50:00,38.7,30.1,30.03,NNW,330,0.0,2.0,71,0.00,,---,0.00,VWS V14.01,2013-04-05 05:50:00,
2013-04-05 00:53:00,38.3,30.4,30.03,NNW,330,0.0,2.0,73,0.00,,---,0.00,VWS V14.01,2013-04-05 05:53:00,
2013-04-05 00:55:00,38.0,30.8,30.03,NNW,330,0.0,2.0,75,0.00,,---,0.00,VWS V14.01,2013-04-05 05:55:00,
2013-04-05 00:56:00,38.0,30.8,30.03,NNW,330,0.0,2.0,75,0.00,,---,0.00,VWS V14.01,2013-04-05 05:56:00,
2013-04-05 00:58:00,37.8,29.9,30.03,NNW,330,0.0,0.0,73,0.00,,---,0.00,VWS V14.01,2013-04-05 05:58:00,
2013-04-05 01:00:00,37.5,29.6,30.03,NNW,330,0.0,1.0,73,0.00,,---,0.00,VWS V14.01,2013-04-05 06:00:00,
2013-04-05 01:01:00,37.5,29.6,30.03,NNW,330,0.0,1.0,73,0.00,,---,0.00,VWS V14.01,2013-04-05 06:01:00,
2013-04-05 01:03:00,37.3,30.4,30.03,NNW,330,0.0,1.0,76,0.00,,---,0.00,VWS V14.01,2013-04-05 06:03:00,
2013-04-05 01:05:00,37.2,30.7,30.03,NNW,330,0.0,1.0,77,0.00,,---,0.00,VWS V14.01,2013-04-05 06:05:00,
2013-04-05 01:06:00,37.1,30.6,30.03,NNW,330,0.0,1.0,77,0.00,,---,0.00,VWS V14.01,2013-04-05 06:06:00,
2013-04-05 01:08:00,37.1,30.9,30.03,NNW,330,0.0,1.0,78,0.00,,---,0.00,VWS V14.01,2013-04-05 06:08:00,
2013-04-05 01:09:00,37.1,30.9,30.03,NNW,330,0.0,1.0,78,0.00,,---,0.00,VWS V14.01,2013-04-05 06:09:00,
2013-04-05 01:10:00,37.0,30.8,30.04,NNW,330,0.0,1.0,78,0.00,,---,0.00,VWS V14.01,2013-04-05 06:10:00,
2013-04-05 01:11:00,37.0,30.5,30.04,NNW,330,0.0,1.0,77,0.00,,---,0.00,VWS V14.01,2013-04-05 06:11:00,
2013-04-05 01:13:00,37.1,30.2,30.04,NNW,330,1.0,1.0,76,0.00,,---,0.00,VWS V14.01,2013-04-05 06:13:00,
2013-04-05 01:14:00,37.0,30.1,30.04,NNW,330,1.0,2.0,76,0.00,,---,0.00,VWS V14.01,2013-04-05 06:14:00,
2013-04-05 01:16:00,36.7,30.5,30.04,NNW,330,0.0,2.0,78,0.00,,---,0.00,VWS V14.01,2013-04-05 06:16:00,
2013-04-05 01:17:00,36.6,31.0,30.04,NNW,330,0.0,2.0,80,0.00,,---,0.00,VWS V14.01,2013-04-05 06:17:00,
2013-04-05 01:19:00,36.4,31.1,30.04,NNW,330,0.0,2.0,81,0.00,,---,0.00,VWS V14.01,2013-04-05 06:19:00,
2013-04-05 01:21:00,36.2,31.2,30.04,NNW,330,0.0,2.0,82,0.00,,---,0.00,VWS V14.01,2013-04-05 06:21:00,
2013-04-05 01:22:00,36.2,31.2,30.04,NNW,330,0.0,2.0,82,0.00,,---,0.00,VWS V14.01,2013-04-05 06:22:00,
2013-04-05 01:24:00,36.2,31.5,30.04,NNW,330,0.0,2.0,83,0.00,,---,0.00,VWS V14.01,2013-04-05 06:24:00,
2013-04-05 01:26:00,36.1,31.5,30.04,NNW,330,0.0,2.0,83,0.00,,---,0.00,VWS V14.01,2013-04-05 06:26:00,
2013-04-05 01:27:00,36.0,31.4,30.04,NNW,330,0.0,2.0,83,0.00,,---,0.00,VWS V14.01,2013-04-05 06:27:00,
2013-04-05 01:29:00,35.6,31.0,30.04,NNW,330,0.0,0.0,83,0.00,,---,0.00,VWS V14.01,2013-04-05 06:29:00,
2013-04-05 01:30:00,35.6,31.0,30.04,NNW,330,0.0,0.0,83,0.00,,---,0.00,VWS V14.01,2013-04-05 06:30:00,
2013-04-05 01:32:00,35.4,30.8,30.04,NNW,330,0.0,0.0,83,0.00,,---,0.00,VWS V14.01,2013-04-05 06:32:00,
2013-04-05 01:35:00,35.2,30.6,30.04,NNW,330,0.0,0.0,83,0.00,,---,0.00,VWS V14.01,2013-04-05 06:35:00,
2013-04-05 01:37:00,35.1,30.5,30.04,NNW,330,0.0,0.0,83,0.00,,---,0.00,VWS V14.01,2013-04-05 06:37:00,
2013-04-05 01:40:00,35.0,30.7,30.04,NNW,330,0.0,0.0,84,0.00,,---,0.00,VWS V14.01,2013-04-05 06:40:00,
2013-04-05 01:42:00,35.0,30.7,30.04,NNW,330,0.0,0.0,84,0.00,,---,0.00,VWS V14.01,2013-04-05 06:42:00,
2013-04-05 01:43:00,35.0,30.7,30.04,NNW,330,0.0,0.0,84,0.00,,---,0.00,VWS V14.01,2013-04-05 06:43:00,
2013-04-05 01:45:00,35.0,30.4,30.04,NNW,330,0.0,0.0,83,0.00,,---,0.00,VWS V14.01,2013-04-05 06:45:00,
2013-04-05 01:46:00,35.0,30.7,30.04,NNW,330,0.0,0.0,84,0.00,,---,0.00,VWS V14.01,2013-04-05 06:46:00,
2013-04-05 01:48:00,34.9,30.3,30.04,NNW,330,0.0,0.0,83,0.00,,---,0.00,VWS V14.01,2013-04-05 06:48:00,
2013-04-05 01:50:00,34.9,30.3,30.05,NNW,330,0.0,0.0,83,0.00,,---,0.00,VWS V14.01,2013-04-05 06:50:00,
2013-04-05 01:51:00,35.0,30.4,30.04,NNW,330,0.0,0.0,83,0.00,,---,0.00,VWS V14.01,2013-04-05 06:51:00,
2013-04-05 01:53:00,34.9,30.0,30.04,NNW,330,0.0,0.0,82,0.00,,---,0.00,VWS V14.01,2013-04-05 06:53:00,
2013-04-05 01:56:00,34.9,30.3,30.04,NNW,330,0.0,0.0,83,0.00,,---,0.00,VWS V14.01,2013-04-05 06:56:00,
2013-04-05 01:58:00,34.8,30.5,30.04,NNW,330,0.0,0.0,84,0.00,,---,0.00,VWS V14.01,2013-04-05 06:58:00,
2013-04-05 02:00:00,34.8,30.5,30.04,NNW,330,0.0,0.0,84,0.00,,---,0.00,VWS V14.01,2013-04-05 07:00:00,
2013-04-05 02:01:00,34.7,30.4,30.04,NNW,330,0.0,0.0,84,0.00,,---,0.00,VWS V14.01,2013-04-05 07:01:00,
2013-04-05 02:03:00,34.7,30.4,30.04,NNW,330,0.0,0.0,84,0.00,,---,0.00,VWS V14.01,2013-04-05 07:03:00,
2013-04-05 02:04:00,34.8,30.5,30.04,NNW,330,0.0,1.0,84,0.00,,---,0.00,VWS V14.01,2013-04-05 07:04:00,
2013-04-05 02:07:00,34.8,30.2,30.04,NNW,330,0.0,1.0,83,0.00,,---,0.00,VWS V14.01,2013-04-05 07:07:00,
2013-04-05 02:08:00,34.7,30.1,30.04,NNW,330,0.0,1.0,83,0.00,,---,0.00,VWS V14.01,2013-04-05 07:08:00,
2013-04-05 02:10:00,34.8,29.9,30.04,NNW,330,0.0,1.0,82,0.00,,---,0.00,VWS V14.01,2013-04-05 07:10:00,
2013-04-05 02:12:00,35.0,29.8,30.04,NNW,330,0.0,1.0,81,0.00,,---,0.00,VWS V14.01,2013-04-05 07:12:00,
2013-04-05 02:13:00,35.1,29.9,30.04,NNW,330,0.0,1.0,81,0.00,,---,0.00,VWS V14.01,2013-04-05 07:13:00,
2013-04-05 02:15:00,35.2,29.7,30.04,NNW,330,0.0,1.0,80,0.00,,---,0.00,VWS V14.01,2013-04-05 07:15:00,
2013-04-05 02:17:00,35.3,29.8,30.04,NNW,330,0.0,1.0,80,0.00,,---,0.00,VWS V14.01,2013-04-05 07:17:00,
2013-04-05 02:18:00,35.4,29.9,30.04,NNW,330,0.0,1.0,80,0.00,,---,0.00,VWS V14.01,2013-04-05 07:18:00,
2013-04-05 02:20:00,35.4,29.5,30.04,NNW,330,0.0,1.0,79,0.00,,---,0.00,VWS V14.01,2013-04-05 07:20:00,
2013-04-05 02:22:00,35.5,30.0,30.04,NNW,330,0.0,1.0,80,0.00,,---,0.00,VWS V14.01,2013-04-05 07:22:00,
2013-04-05 02:23:00,35.5,30.0,30.04,NNW,330,0.0,1.0,80,0.00,,---,0.00,VWS V14.01,2013-04-05 07:23:00,
2013-04-05 02:25:00,35.4,29.9,30.04,NNW,330,0.0,1.0,80,0.00,,---,0.00,VWS V14.01,2013-04-05 07:25:00,
2013-04-05 02:27:00,35.3,30.1,30.04,NNW,330,0.0,0.0,81,0.00,,---,0.00,VWS V14.01,2013-04-05 07:27:00,
2013-04-05 02:28:00,35.2,30.0,30.04,NNW,330,0.0,0.0,81,0.00,,---,0.00,VWS V14.01,2013-04-05 07:28:00,
2013-04-05 02:30:00,35.1,29.9,30.04,NNW,330,0.0,0.0,81,0.00,,---,0.00,VWS V14.01,2013-04-05 07:30:00,
2013-04-05 02:32:00,35.2,29.7,30.04,NNW,330,0.0,0.0,80,0.00,,---,0.00,VWS V14.01,2013-04-05 07:32:00,
2013-04-05 02:33:00,35.2,29.7,30.04,NNW,330,0.0,0.0,80,0.00,,---,0.00,VWS V14.01,2013-04-05 07:33:00,
2013-04-05 02:36:00,35.3,29.8,30.04,NNW,330,0.0,0.0,80,0.00,,---,0.00,VWS V14.01,2013-04-05 07:36:00,
2013-04-05 02:38:00,35.4,29.9,30.04,NNW,330,0.0,0.0,80,0.00,,---,0.00,VWS V14.01,2013-04-05 07:38:00,
2013-04-05 02:41:00,35.5,30.0,30.04,NNW,330,0.0,0.0,80,0.00,,---,0.00,VWS V14.01,2013-04-05 07:41:00,
2013-04-05 02:42:00,35.5,29.6,30.04,NNW,330,0.0,0.0,79,0.00,,---,0.00,VWS V14.01,2013-04-05 07:42:00,
2013-04-05 02:45:00,35.4,29.9,30.04,NNW,330,0.0,0.0,80,0.00,,---,0.00,VWS V14.01,2013-04-05 07:45:00,
2013-04-05 02:46:00,35.3,29.5,30.04,NNW,330,0.0,0.0,79,0.00,,---,0.00,VWS V14.01,2013-04-05 07:46:00,
2013-04-05 02:48:00,35.0,29.5,30.04,NNW,330,0.0,0.0,80,0.00,,---,0.00,VWS V14.01,2013-04-05 07:48:00,
2013-04-05 02:50:00,34.9,29.4,30.04,NNW,330,0.0,0.0,80,0.00,,---,0.00,VWS V14.01,2013-04-05 07:50:00,
2013-04-05 02:51:00,34.9,29.4,30.04,NNW,330,0.0,0.0,80,0.00,,---,0.00,VWS V14.01,2013-04-05 07:51:00,
2013-04-05 02:52:00,34.8,29.3,30.04,NNW,330,0.0,0.0,80,0.00,,---,0.00,VWS V14.01,2013-04-05 07:52:00,
2013-04-05 02:53:00,34.9,29.4,30.04,NNW,330,0.0,0.0,80,0.00,,---,0.00,VWS V14.01,2013-04-05 07:53:00,
2013-04-05 02:55:00,35.0,29.5,30.04,NNW,330,0.0,0.0,80,0.00,,---,0.00,VWS V14.01,2013-04-05 07:55:00,
2013-04-05 02:57:00,34.8,29.3,30.05,NNW,330,0.0,0.0,80,0.00,,---,0.00,VWS V14.01,2013-04-05 07:57:00,
2013-04-05 02:58:00,34.7,29.2,30.05,NNW,330,0.0,0.0,80,0.00,,---,0.00,VWS V14.01,2013-04-05 07:58:00,
2013-04-05 03:00:00,34.6,29.4,30.05,NNW,330,0.0,0.0,81,0.00,,---,0.00,VWS V14.01,2013-04-05 08:00:00,
2013-04-05 03:02:00,34.4,29.5,30.05,NNW,330,0.0,0.0,82,0.00,,---,0.00,VWS V14.01,2013-04-05 08:02:00,
2013-04-05 03:03:00,34.4,29.5,30.05,NNW,330,0.0,0.0,82,0.00,,---,0.00,VWS V14.01,2013-04-05 08:03:00,
2013-04-05 03:05:00,34.4,29.8,30.05,NNW,330,0.0,0.0,83,0.00,,---,0.00,VWS V14.01,2013-04-05 08:05:00,
2013-04-05 03:07:00,34.4,29.5,30.05,NNW,330,0.0,0.0,82,0.00,,---,0.00,VWS V14.01,2013-04-05 08:07:00,
2013-04-05 03:08:00,34.4,29.5,30.05,NNW,330,0.0,0.0,82,0.00,,---,0.00,VWS V14.01,2013-04-05 08:08:00,
2013-04-05 03:09:00,34.4,29.5,30.05,NNW,330,0.0,0.0,82,0.00,,---,0.00,VWS V14.01,2013-04-05 08:09:00,
2013-04-05 03:10:00,34.3,29.4,30.05,NNW,330,0.0,0.0,82,0.00,,---,0.00,VWS V14.01,2013-04-05 08:10:00,
2013-04-05 03:13:00,34.3,29.7,30.05,NNW,330,0.0,0.0,83,0.00,,---,0.00,VWS V14.01,2013-04-05 08:13:00,
2013-04-05 03:14:00,34.3,29.7,30.05,NNW,330,0.0,0.0,83,0.00,,---,0.00,VWS V14.01,2013-04-05 08:14:00,
2013-04-05 03:15:00,34.3,30.0,30.05,NNW,330,0.0,0.0,84,0.00,,---,0.00,VWS V14.01,2013-04-05 08:15:00,
2013-04-05 03:18:00,34.4,29.8,30.05,NNW,330,0.0,0.0,83,0.00,,---,0.00,VWS V14.01,2013-04-05 08:18:00,
2013-04-05 03:19:00,34.5,29.9,30.05,NNW,330,0.0,0.0,83,0.00,,---,0.00,VWS V14.01,2013-04-05 08:19:00,
2013-04-05 03:21:00,34.6,30.0,30.05,NNW,330,0.0,0.0,83,0.00,,---,0.00,VWS V14.01,2013-04-05 08:21:00,
2013-04-05 03:23:00,34.6,30.0,30.05,NNW,330,0.0,0.0,83,0.00,,---,0.00,VWS V14.01,2013-04-05 08:23:00,
2013-04-05 03:24:00,34.5,29.9,30.05,NNW,330,0.0,0.0,83,0.00,,---,0.00,VWS V14.01,2013-04-05 08:24:00,
2013-04-05 03:26:00,34.4,29.5,30.05,NNW,330,0.0,0.0,82,0.00,,---,0.00,VWS V14.01,2013-04-05 08:26:00,
2013-04-05 03:28:00,34.3,29.4,30.05,NNW,330,0.0,0.0,82,0.00,,---,0.00,VWS V14.01,2013-04-05 08:28:00,
2013-04-05 03:29:00,34.2,29.0,30.05,NNW,330,0.0,0.0,81,0.00,,---,0.00,VWS V14.01,2013-04-05 08:29:00,
2013-04-05 03:30:00,34.4,29.5,30.05,NNW,330,0.0,0.0,82,0.00,,---,0.00,VWS V14.01,2013-04-05 08:30:00,
2013-04-05 03:31:00,34.0,28.8,30.05,NNW,330,0.0,0.0,81,0.00,,---,0.00,VWS V14.01,2013-04-05 08:31:00,
2013-04-05 03:33:00,33.9,29.0,30.05,NNW,330,0.0,0.0,82,0.00,,---,0.00,VWS V14.01,2013-04-05 08:33:00,
2013-04-05 03:34:00,33.8,28.9,30.05,NNW,330,0.0,0.0,82,0.00,,---,0.00,VWS V14.01,2013-04-05 08:34:00,
2013-04-05 03:35:00,33.9,29.0,30.05,NNW,330,0.0,0.0,82,0.00,,---,0.00,VWS V14.01,2013-04-05 08:35:00,
2013-04-05 03:36:00,33.9,29.0,30.05,NNW,330,0.0,0.0,82,0.00,,---,0.00,VWS V14.01,2013-04-05 08:36:00,
2013-04-05 03:38:00,34.0,29.4,30.05,NNW,330,0.0,0.0,83,0.00,,---,0.00,VWS V14.01,2013-04-05 08:38:00,
2013-04-05 03:39:00,34.0,29.4,30.06,NNW,330,0.0,0.0,83,0.00,,---,0.00,VWS V14.01,2013-04-05 08:39:00,
2013-04-05 03:40:00,34.0,29.4,30.06,NNW,330,0.0,0.0,83,0.00,,---,0.00,VWS V14.01,2013-04-05 08:40:00,
2013-04-05 03:41:00,33.9,29.6,30.06,NNW,330,0.0,0.0,84,0.00,,---,0.00,VWS V14.01,2013-04-05 08:41:00,
2013-04-05 03:43:00,33.8,29.5,30.06,NNW,330,0.0,0.0,84,0.00,,---,0.00,VWS V14.01,2013-04-05 08:43:00,
2013-04-05 03:44:00,33.8,29.8,30.05,NNW,330,0.0,0.0,85,0.00,,---,0.00,VWS V14.01,2013-04-05 08:44:00,
2013-04-05 03:45:00,33.7,29.7,30.06,NNW,330,0.0,0.0,85,0.00,,---,0.00,VWS V14.01,2013-04-05 08:45:00,
2013-04-05 03:47:00,33.6,29.9,30.06,NNW,330,0.0,0.0,86,0.00,,---,0.00,VWS V14.01,2013-04-05 08:47:00,
2013-04-05 03:49:00,33.5,29.8,30.06,NNW,330,0.0,0.0,86,0.00,,---,0.00,VWS V14.01,2013-04-05 08:49:00,
2013-04-05 03:50:00,33.4,29.7,30.06,NNW,330,0.0,0.0,86,0.00,,---,0.00,VWS V14.01,2013-04-05 08:50:00,
2013-04-05 03:52:00,33.2,29.5,30.06,NNW,330,0.0,0.0,86,0.00,,---,0.00,VWS V14.01,2013-04-05 08:52:00,
2013-04-05 03:54:00,33.2,29.8,30.06,NNW,330,0.0,0.0,87,0.00,,---,0.00,VWS V14.01,2013-04-05 08:54:00,
2013-04-05 03:55:00,33.1,29.7,30.06,NNW,330,0.0,0.0,87,0.00,,---,0.00,VWS V14.01,2013-04-05 08:55:00,
2013-04-05 03:56:00,33.1,29.7,30.06,NNW,330,0.0,0.0,87,0.00,,---,0.00,VWS V14.01,2013-04-05 08:56:00,
2013-04-05 03:57:00,33.1,29.7,30.06,NNW,330,0.0,0.0,87,0.00,,---,0.00,VWS V14.01,2013-04-05 08:57:00,
2013-04-05 04:00:00,33.2,29.8,30.06,NNW,330,0.0,0.0,87,0.00,,---,0.00,VWS V14.01,2013-04-05 09:00:00,
2013-04-05 04:01:00,33.2,29.5,30.06,NNW,330,0.0,0.0,86,0.00,,---,0.00,VWS V14.01,2013-04-05 09:01:00,
2013-04-05 04:02:00,33.2,29.5,30.06,NNW,330,0.0,0.0,86,0.00,,---,0.00,VWS V14.01,2013-04-05 09:02:00,
2013-04-05 04:05:00,33.2,29.5,30.06,NNW,330,0.0,0.0,86,0.00,,---,0.00,VWS V14.01,2013-04-05 09:05:00,
2013-04-05 04:06:00,33.1,29.4,30.06,NNW,330,0.0,0.0,86,0.00,,---,0.00,VWS V14.01,2013-04-05 09:06:00,
2013-04-05 04:08:00,33.1,29.7,30.06,NNW,330,0.0,0.0,87,0.00,,---,0.00,VWS V14.01,2013-04-05 09:08:00,
2013-04-05 04:10:00,33.0,29.6,30.06,NNW,330,0.0,0.0,87,0.00,,---,0.00,VWS V14.01,2013-04-05 09:10:00,
2013-04-05 04:11:00,33.0,29.6,30.06,NNW,330,0.0,0.0,87,0.00,,---,0.00,VWS V14.01,2013-04-05 09:11:00,
2013-04-05 04:13:00,33.0,29.6,30.06,NNW,330,0.0,0.0,87,0.00,,---,0.00,VWS V14.01,2013-04-05 09:13:00,
2013-04-05 04:15:00,33.0,29.6,30.06,NNW,330,0.0,0.0,87,0.00,,---,0.00,VWS V14.01,2013-04-05 09:15:00,
2013-04-05 04:16:00,33.0,29.6,30.06,NNW,330,0.0,0.0,87,0.00,,---,0.00,VWS V14.01,2013-04-05 09:16:00,
2013-04-05 04:17:00,32.9,29.5,30.06,NNW,330,0.0,0.0,87,0.00,,---,0.00,VWS V14.01,2013-04-05 09:17:00,
2013-04-05 04:18:00,32.9,29.5,30.06,NNW,330,0.0,0.0,87,0.00,,---,0.00,VWS V14.01,2013-04-05 09:18:00,
2013-04-05 04:21:00,32.6,29.2,30.06,NNW,330,0.0,0.0,87,0.00,,---,0.00,VWS V14.01,2013-04-05 09:21:00,
2013-04-05 04:22:00,32.6,29.5,30.06,NNW,330,0.0,0.0,88,0.00,,---,0.00,VWS V14.01,2013-04-05 09:22:00,
2013-04-05 04:23:00,32.6,29.5,30.06,NNW,330,0.0,0.0,88,0.00,,---,0.00,VWS V14.01,2013-04-05 09:23:00,
2013-04-05 04:26:00,32.6,29.2,30.06,NNW,330,0.0,0.0,87,0.00,,---,0.00,VWS V14.01,2013-04-05 09:26:00,
2013-04-05 04:27:00,32.6,29.2,30.06,NNW,330,0.0,0.0,87,0.00,,---,0.00,VWS V14.01,2013-04-05 09:27:00,
2013-04-05 04:28:00,32.6,29.2,30.06,NNW,330,0.0,0.0,87,0.00,,---,0.00,VWS V14.01,2013-04-05 09:28:00,
2013-04-05 04:30:00,32.6,29.2,30.06,NNW,330,0.0,0.0,87,0.00,,---,0.00,VWS V14.01,2013-04-05 09:30:00,
2013-04-05 04:31:00,32.7,29.5,30.06,NNW,330,0.0,0.0,88,0.00,,---,0.00,VWS V14.01,2013-04-05 09:31:00,
2013-04-05 04:32:00,32.8,29.6,30.06,NNW,330,0.0,0.0,88,0.00,,---,0.00,VWS V14.01,2013-04-05 09:32:00,
2013-04-05 04:34:00,32.8,29.6,30.06,NNW,330,0.0,0.0,88,0.00,,---,0.00,VWS V14.01,2013-04-05 09:34:00,
2013-04-05 04:36:00,32.9,29.7,30.06,NNW,330,0.0,0.0,88,0.00,,---,0.00,VWS V14.01,2013-04-05 09:36:00,
2013-04-05 04:37:00,32.9,29.7,30.06,NNW,330,0.0,0.0,88,0.00,,---,0.00,VWS V14.01,2013-04-05 09:37:00,
2013-04-05 04:39:00,32.9,29.7,30.06,NNW,330,0.0,0.0,88,0.00,,---,0.00,VWS V14.01,2013-04-05 09:39:00,
2013-04-05 04:41:00,32.8,29.4,30.06,NNW,330,0.0,0.0,87,0.00,,---,0.00,VWS V14.01,2013-04-05 09:41:00,
2013-04-05 04:42:00,32.8,29.6,30.06,NNW,330,0.0,0.0,88,0.00,,---,0.00,VWS V14.01,2013-04-05 09:42:00,
2013-04-05 04:44:00,32.7,29.5,30.06,NNW,330,0.0,0.0,88,0.00,,---,0.00,VWS V14.01,2013-04-05 09:44:00,
2013-04-05 04:47:00,32.7,29.3,30.06,NNW,330,0.0,0.0,87,0.00,,---,0.00,VWS V14.01,2013-04-05 09:47:00,
2013-04-05 04:49:00,32.7,29.3,30.06,NNW,330,0.0,0.0,87,0.00,,---,0.00,VWS V14.01,2013-04-05 09:49:00,
2013-04-05 04:52:00,32.6,29.2,30.06,NNW,330,0.0,0.0,87,0.00,,---,0.00,VWS V14.01,2013-04-05 09:52:00,
2013-04-05 04:55:00,32.4,29.0,30.06,NNW,330,0.0,0.0,87,0.00,,---,0.00,VWS V14.01,2013-04-05 09:55:00,
2013-04-05 04:57:00,32.2,29.0,30.06,NNW,330,0.0,0.0,88,0.00,,---,0.00,VWS V14.01,2013-04-05 09:57:00,
2013-04-05 04:58:00,32.1,29.0,30.06,NNW,330,0.0,0.0,88,0.00,,---,0.00,VWS V14.01,2013-04-05 09:58:00,
2013-04-05 05:00:00,32.0,28.9,30.06,NNW,330,0.0,0.0,88,0.00,,---,0.00,VWS V14.01,2013-04-05 10:00:00,
2013-04-05 05:02:00,32.1,29.0,30.06,NNW,330,0.0,0.0,88,0.00,,---,0.00,VWS V14.01,2013-04-05 10:02:00,
2013-04-05 05:03:00,32.1,29.0,30.06,NNW,330,0.0,0.0,88,0.00,,---,0.00,VWS V14.01,2013-04-05 10:03:00,
2013-04-05 05:05:00,32.1,29.0,30.07,NNW,330,0.0,0.0,88,0.00,,---,0.00,VWS V14.01,2013-04-05 10:05:00,
2013-04-05 05:07:00,32.0,28.9,30.06,NNW,330,0.0,0.0,88,0.00,,---,0.00,VWS V14.01,2013-04-05 10:07:00,
2013-04-05 05:08:00,32.0,28.9,30.06,NNW,330,0.0,0.0,88,0.00,,---,0.00,VWS V14.01,2013-04-05 10:08:00,
2013-04-05 05:11:00,31.9,28.8,30.07,NNW,330,0.0,0.0,88,0.00,,---,0.00,VWS V14.01,2013-04-05 10:11:00,
2013-04-05 05:13:00,31.9,29.0,30.07,NNW,330,0.0,0.0,89,0.00,,---,0.00,VWS V14.01,2013-04-05 10:13:00,
2013-04-05 05:17:00,32.0,29.1,30.07,NNW,330,0.0,0.0,89,0.00,,---,0.00,VWS V14.01,2013-04-05 10:17:00,
2013-04-05 05:18:00,32.0,29.1,30.07,NNW,330,0.0,0.0,89,0.00,,---,0.00,VWS V14.01,2013-04-05 10:18:00,
2013-04-05 05:22:00,32.0,29.1,30.07,NNW,330,0.0,0.0,89,0.00,,---,0.00,VWS V14.01,2013-04-05 10:22:00,
2013-04-05 05:23:00,32.1,29.2,30.07,NNW,330,0.0,0.0,89,0.00,,---,0.00,VWS V14.01,2013-04-05 10:23:00,
2013-04-05 05:27:00,32.2,29.3,30.07,NNW,330,0.0,0.0,89,0.00,,---,0.00,VWS V14.01,2013-04-05 10:27:00,
2013-04-05 05:28:00,32.1,29.2,30.07,NNW,330,0.0,0.0,89,0.00,,---,0.00,VWS V14.01,2013-04-05 10:28:00,
2013-04-05 05:29:00,32.1,29.2,30.08,NNW,330,0.0,0.0,89,0.00,,---,0.00,VWS V14.01,2013-04-05 10:29:00,
2013-04-05 05:30:00,32.1,29.2,30.07,NNW,330,0.0,0.0,89,0.00,,---,0.00,VWS V14.01,2013-04-05 10:30:00,
2013-04-05 05:32:00,32.1,29.2,30.07,NNW,330,0.0,0.0,89,0.00,,---,0.00,VWS V14.01,2013-04-05 10:32:00,
2013-04-05 05:33:00,32.1,29.0,30.08,NNW,330,0.0,0.0,88,0.00,,---,0.00,VWS V14.01,2013-04-05 10:33:00,
2013-04-05 05:34:00,32.0,28.9,30.08,NNW,330,0.0,0.0,88,0.00,,---,0.00,VWS V14.01,2013-04-05 10:34:00,
2013-04-05 05:37:00,32.0,29.1,30.08,NNW,330,0.0,0.0,89,0.00,,---,0.00,VWS V14.01,2013-04-05 10:37:00,
2013-04-05 05:38:00,32.0,29.1,30.08,NNW,330,0.0,0.0,89,0.00,,---,0.00,VWS V14.01,2013-04-05 10:38:00,
2013-04-05 05:39:00,32.0,29.1,30.08,NNW,330,0.0,0.0,89,0.00,,---,0.00,VWS V14.01,2013-04-05 10:39:00,
2013-04-05 05:42:00,32.1,29.0,30.08,NNW,330,0.0,0.0,88,0.00,,---,0.00,VWS V14.01,2013-04-05 10:42:00,
2013-04-05 05:43:00,32.1,29.0,30.08,NNW,330,0.0,0.0,88,0.00,,---,0.00,VWS V14.01,2013-04-05 10:43:00,
2013-04-05 05:44:00,32.0,28.9,30.08,NNW,330,0.0,0.0,88,0.00,,---,0.00,VWS V14.01,2013-04-05 10:44:00,
2013-04-05 05:48:00,31.8,28.9,30.08,NNW,330,0.0,0.0,89,0.00,,---,0.00,VWS V14.01,2013-04-05 10:48:00,
2013-04-05 05:49:00,31.8,28.9,30.08,NNW,330,0.0,0.0,89,0.00,,---,0.00,VWS V14.01,2013-04-05 10:49:00,
2013-04-05 05:53:00,31.9,29.0,30.08,NNW,330,0.0,0.0,89,0.00,,---,0.00,VWS V14.01,2013-04-05 10:53:00,
2013-04-05 05:54:00,31.9,29.0,30.08,NNW,330,0.0,0.0,89,0.00,,---,0.00,VWS V14.01,2013-04-05 10:54:00,
2013-04-05 05:55:00,31.9,29.0,30.08,NNW,330,0.0,0.0,89,0.00,,---,0.00,VWS V14.01,2013-04-05 10:55:00,
2013-04-05 05:58:00,31.9,29.0,30.09,NNW,330,0.0,0.0,89,0.00,,---,0.00,VWS V14.01,2013-04-05 10:58:00,
2013-04-05 06:00:00,31.8,28.9,30.09,NNW,330,0.0,0.0,89,0.00,,---,0.00,VWS V14.01,2013-04-05 11:00:00,
2013-04-05 06:03:00,31.7,28.8,30.09,NNW,330,0.0,0.0,89,0.00,,---,0.00,VWS V14.01,2013-04-05 11:03:00,
2013-04-05 06:04:00,31.6,28.7,30.09,NNW,330,0.0,0.0,89,0.00,,---,0.00,VWS V14.01,2013-04-05 11:04:00,
2013-04-05 06:05:00,31.5,28.6,30.09,NNW,330,0.0,0.0,89,0.00,,---,0.00,VWS V14.01,2013-04-05 11:05:00,
2013-04-05 06:08:00,31.3,28.7,30.09,NNW,330,0.0,0.0,90,0.00,,---,0.00,VWS V14.01,2013-04-05 11:08:00,
2013-04-05 06:09:00,31.3,28.7,30.09,NNW,330,0.0,0.0,90,0.00,,---,0.00,VWS V14.01,2013-04-05 11:09:00,
2013-04-05 06:10:00,31.2,28.6,30.09,NNW,330,0.0,0.0,90,0.00,,---,0.00,VWS V14.01,2013-04-05 11:10:00,
2013-04-05 06:13:00,31.1,28.5,30.10,NNW,330,0.0,0.0,90,0.00,,---,0.00,VWS V14.01,2013-04-05 11:13:00,
2013-04-05 06:14:00,31.2,28.6,30.10,NNW,330,0.0,0.0,90,0.00,,---,0.00,VWS V14.01,2013-04-05 11:14:00,
2013-04-05 06:15:00,31.2,28.6,30.10,NNW,330,0.0,0.0,90,0.00,,---,0.00,VWS V14.01,2013-04-05 11:15:00,
2013-04-05 06:18:00,31.5,29.2,30.10,NNW,330,0.0,0.0,91,0.00,,---,0.00,VWS V14.01,2013-04-05 11:18:00,
2013-04-05 06:19:00,31.6,29.3,30.10,NNW,330,0.0,0.0,91,0.00,,---,0.00,VWS V14.01,2013-04-05 11:19:00,
2013-04-05 06:20:00,31.7,29.4,30.10,NNW,330,0.0,0.0,91,0.00,,---,0.00,VWS V14.01,2013-04-05 11:20:00,
2013-04-05 06:24:00,31.6,29.0,30.10,NNW,330,0.0,0.0,90,0.00,,---,0.00,VWS V14.01,2013-04-05 11:24:00,
2013-04-05 06:25:00,31.5,28.9,30.10,NNW,330,0.0,0.0,90,0.00,,---,0.00,VWS V14.01,2013-04-05 11:25:00,
2013-04-05 06:29:00,31.2,28.6,30.10,NNW,330,0.0,0.0,90,0.00,,---,0.00,VWS V14.01,2013-04-05 11:29:00,
2013-04-05 06:30:00,31.2,28.6,30.10,NNW,330,0.0,0.0,90,0.00,,---,0.00,VWS V14.01,2013-04-05 11:30:00,
2013-04-05 06:31:00,31.2,28.6,30.10,NNW,330,0.0,0.0,90,0.00,,---,0.00,VWS V14.01,2013-04-05 11:31:00,
2013-04-05 06:34:00,31.2,28.6,30.10,NNW,330,0.0,0.0,90,0.00,,---,0.00,VWS V14.01,2013-04-05 11:34:00,
2013-04-05 06:35:00,31.2,28.6,30.10,NNW,330,0.0,0.0,90,0.00,,---,0.00,VWS V14.01,2013-04-05 11:35:00,
2013-04-05 06:36:00,31.2,28.6,30.10,NNW,330,0.0,0.0,90,0.00,,---,0.00,VWS V14.01,2013-04-05 11:36:00,
2013-04-05 06:39:00,31.3,29.0,30.10,NNW,330,0.0,0.0,91,0.00,,---,0.00,VWS V14.01,2013-04-05 11:39:00,
2013-04-05 06:40:00,31.3,29.0,30.10,NNW,330,0.0,0.0,91,0.00,,---,0.00,VWS V14.01,2013-04-05 11:40:00,
2013-04-05 06:41:00,31.4,28.8,30.10,NNW,330,0.0,0.0,90,0.00,,---,0.00,VWS V14.01,2013-04-05 11:41:00,
2013-04-05 06:45:00,31.5,28.9,30.10,NNW,330,0.0,0.0,90,0.00,,---,0.00,VWS V14.01,2013-04-05 11:45:00,
2013-04-05 06:46:00,31.5,28.9,30.10,NNW,330,0.0,0.0,90,0.00,,---,0.00,VWS V14.01,2013-04-05 11:46:00,
2013-04-05 06:48:00,31.5,28.9,30.10,NNW,330,0.0,0.0,90,0.00,,---,0.00,VWS V14.01,2013-04-05 11:48:00,
2013-04-05 06:50:00,31.5,28.9,30.10,NNW,330,0.0,0.0,90,0.00,,---,0.00,VWS V14.01,2013-04-05 11:50:00,
2013-04-05 06:51:00,31.4,28.8,30.10,NNW,330,0.0,0.0,90,0.00,,---,0.00,VWS V14.01,2013-04-05 11:51:00,
2013-04-05 06:53:00,31.4,28.8,30.10,NNW,330,0.0,0.0,90,0.00,,---,0.00,VWS V14.01,2013-04-05 11:53:00,
2013-04-05 06:55:00,31.4,28.8,30.10,NNW,330,0.0,0.0,90,0.00,,---,0.00,VWS V14.01,2013-04-05 11:55:00,
2013-04-05 06:56:00,31.5,28.9,30.10,NNW,330,0.0,0.0,90,0.00,,---,0.00,VWS V14.01,2013-04-05 11:56:00,
2013-04-05 06:59:00,31.5,28.9,30.10,NNW,330,0.0,0.0,90,0.00,,---,0.00,VWS V14.01,2013-04-05 11:59:00,
2013-04-05 07:00:00,31.5,28.9,30.11,NNW,330,0.0,0.0,90,0.00,,---,0.00,VWS V14.01,2013-04-05 12:00:00,
2013-04-05 07:02:00,31.5,28.9,30.11,NNW,330,0.0,0.0,90,0.00,,---,0.00,VWS V14.01,2013-04-05 12:02:00,
2013-04-05 07:04:00,31.5,28.9,30.11,NNW,330,0.0,0.0,90,0.00,,---,0.00,VWS V14.01,2013-04-05 12:04:00,
2013-04-05 07:05:00,31.5,28.9,30.11,NNW,330,0.0,0.0,90,0.00,,---,0.00,VWS V14.01,2013-04-05 12:05:00,
2013-04-05 07:06:00,31.6,29.0,30.11,NNW,330,0.0,0.0,90,0.00,,---,0.00,VWS V14.01,2013-04-05 12:06:00,
2013-04-05 07:07:00,31.7,29.1,30.11,NNW,330,0.0,0.0,90,0.00,,---,0.00,VWS V14.01,2013-04-05 12:07:00,
2013-04-05 07:09:00,31.7,29.4,30.11,NNW,330,0.0,0.0,91,0.00,,---,0.00,VWS V14.01,2013-04-05 12:09:00,
2013-04-05 07:11:00,31.8,29.2,30.11,NNE,23,0.0,0.0,90,0.00,,---,0.00,VWS V14.01,2013-04-05 12:11:00,
2013-04-05 07:12:00,31.9,29.3,30.11,SE,137,0.0,0.0,90,0.00,,---,0.00,VWS V14.01,2013-04-05 12:12:00,
2013-04-05 07:15:00,32.0,29.4,30.11,SE,137,0.0,0.0,90,0.00,,---,0.00,VWS V14.01,2013-04-05 12:15:00,
2013-04-05 07:16:00,32.1,29.5,30.11,SE,137,0.0,0.0,90,0.00,,---,0.00,VWS V14.01,2013-04-05 12:16:00,
2013-04-05 07:17:00,32.2,29.6,30.11,SE,137,0.0,0.0,90,0.00,,---,0.00,VWS V14.01,2013-04-05 12:17:00,
2013-04-05 07:20:00,32.5,30.2,30.12,SE,137,0.0,0.0,91,0.00,,---,0.00,VWS V14.01,2013-04-05 12:20:00,
2013-04-05 07:21:00,32.5,30.2,30.12,SE,137,0.0,0.0,91,0.00,,---,0.00,VWS V14.01,2013-04-05 12:21:00,
2013-04-05 07:22:00,32.6,30.0,30.12,SE,137,0.0,0.0,90,0.00,,---,0.00,VWS V14.01,2013-04-05 12:22:00,
2013-04-05 07:25:00,32.8,29.9,30.12,SE,137,0.0,0.0,89,0.00,,---,0.00,VWS V14.01,2013-04-05 12:25:00,
2013-04-05 07:26:00,32.9,30.0,30.12,SE,137,0.0,0.0,89,0.00,,---,0.00,VWS V14.01,2013-04-05 12:26:00,
2013-04-05 07:27:00,33.0,30.1,30.12,SE,137,0.0,0.0,89,0.00,,---,0.00,VWS V14.01,2013-04-05 12:27:00,
2013-04-05 07:30:00,33.0,30.1,30.12,SE,137,0.0,0.0,89,0.00,,---,0.00,VWS V14.01,2013-04-05 12:30:00,
2013-04-05 07:31:00,33.2,30.3,30.12,SE,137,0.0,0.0,89,0.00,,---,0.00,VWS V14.01,2013-04-05 12:31:00,
2013-04-05 07:32:00,33.2,30.3,30.12,SE,137,0.0,0.0,89,0.00,,---,0.00,VWS V14.01,2013-04-05 12:32:00,
2013-04-05 07:37:00,33.3,30.7,30.12,SE,137,0.0,0.0,90,0.00,,---,0.00,VWS V14.01,2013-04-05 12:37:00,
2013-04-05 07:38:00,33.5,30.9,30.12,SE,137,0.0,0.0,90,0.00,,---,0.00,VWS V14.01,2013-04-05 12:38:00,
2013-04-05 07:42:00,34.0,31.4,30.12,SE,137,0.0,0.0,90,0.00,,---,0.00,VWS V14.01,2013-04-05 12:42:00,
2013-04-05 07:43:00,34.0,31.4,30.12,SE,137,0.0,0.0,90,0.00,,---,0.00,VWS V14.01,2013-04-05 12:43:00,
2013-04-05 07:47:00,34.6,32.0,30.12,SE,137,0.0,0.0,90,0.00,,---,0.00,VWS V14.01,2013-04-05 12:47:00,
2013-04-05 07:49:00,34.8,32.2,30.12,SE,137,0.0,0.0,90,0.00,,---,0.00,VWS V14.01,2013-04-05 12:49:00,
2013-04-05 07:50:00,34.9,32.3,30.12,SE,137,0.0,0.0,90,0.00,,---,0.00,VWS V14.01,2013-04-05 12:50:00,
2013-04-05 07:52:00,35.2,32.6,30.12,SE,137,0.0,0.0,90,0.00,,---,0.00,VWS V14.01,2013-04-05 12:52:00,
2013-04-05 07:54:00,35.3,32.7,30.12,SE,137,0.0,0.0,90,0.00,,---,0.00,VWS V14.01,2013-04-05 12:54:00,
2013-04-05 07:55:00,35.4,32.5,30.12,SE,137,0.0,0.0,89,0.00,,---,0.00,VWS V14.01,2013-04-05 12:55:00,
2013-04-05 07:57:00,35.7,32.8,30.12,SE,137,0.0,0.0,89,0.00,,---,0.00,VWS V14.01,2013-04-05 12:57:00,
2013-04-05 07:59:00,35.9,33.0,30.12,SE,137,0.0,0.0,89,0.00,,---,0.00,VWS V14.01,2013-04-05 12:59:00,
2013-04-05 08:00:00,35.9,33.0,30.12,SE,137,0.0,1.0,89,0.00,,---,0.00,VWS V14.01,2013-04-05 13:00:00,
2013-04-05 08:02:00,36.1,32.9,30.12,SE,137,0.0,1.0,88,0.00,,---,0.00,VWS V14.01,2013-04-05 13:02:00,
2013-04-05 08:03:00,36.2,33.0,30.12,SE,137,0.0,1.0,88,0.00,,---,0.00,VWS V14.01,2013-04-05 13:03:00,
2013-04-05 08:04:00,36.3,33.1,30.12,SE,137,0.0,1.0,88,0.00,,---,0.00,VWS V14.01,2013-04-05 13:04:00,
2013-04-05 08:05:00,36.4,33.2,30.12,SE,137,0.0,1.0,88,0.00,,---,0.00,VWS V14.01,2013-04-05 13:05:00,
2013-04-05 08:07:00,36.7,33.5,30.12,SE,137,0.0,1.0,88,0.00,,---,0.00,VWS V14.01,2013-04-05 13:07:00,
2013-04-05 08:08:00,36.9,33.7,30.12,SE,137,0.0,1.0,88,0.00,,---,0.00,VWS V14.01,2013-04-05 13:08:00,
2013-04-05 08:09:00,36.9,33.4,30.11,SE,137,0.0,1.0,87,0.00,,---,0.00,VWS V14.01,2013-04-05 13:09:00,
2013-04-05 08:10:00,37.0,33.5,30.11,SE,137,0.0,1.0,87,0.00,,---,0.00,VWS V14.01,2013-04-05 13:10:00,
2013-04-05 08:12:00,37.4,34.2,30.11,SE,137,0.0,1.0,88,0.00,,---,0.00,VWS V14.01,2013-04-05 13:12:00,
2013-04-05 08:13:00,37.5,34.0,30.11,SE,137,0.0,1.0,87,0.00,,---,0.00,VWS V14.01,2013-04-05 13:13:00,
2013-04-05 08:14:00,37.5,34.0,30.12,SE,137,0.0,1.0,87,0.00,,---,0.00,VWS V14.01,2013-04-05 13:14:00,
2013-04-05 08:15:00,37.6,33.8,30.12,SE,137,0.0,1.0,86,0.00,,---,0.00,VWS V14.01,2013-04-05 13:15:00,
2013-04-05 08:18:00,37.9,34.1,30.12,SE,137,0.0,1.0,86,0.00,,---,0.00,VWS V14.01,2013-04-05 13:18:00,
2013-04-05 08:19:00,38.1,34.6,30.12,SE,137,0.0,1.0,87,0.00,,---,0.00,VWS V14.01,2013-04-05 13:19:00,
2013-04-05 08:20:00,38.4,34.6,30.12,SE,137,0.0,1.0,86,0.00,,---,0.00,VWS V14.01,2013-04-05 13:20:00,
2013-04-05 08:23:00,39.2,35.1,30.12,SE,137,0.0,1.0,85,0.00,,---,0.00,VWS V14.01,2013-04-05 13:23:00,
2013-04-05 08:24:00,39.3,35.2,30.12,SE,137,0.0,1.0,85,0.00,,---,0.00,VWS V14.01,2013-04-05 13:24:00,
2013-04-05 08:25:00,39.4,35.0,30.12,SE,137,0.0,1.0,84,0.00,,---,0.00,VWS V14.01,2013-04-05 13:25:00,
2013-04-05 08:28:00,39.7,35.3,30.12,SE,137,0.0,0.0,84,0.00,,---,0.00,VWS V14.01,2013-04-05 13:28:00,
2013-04-05 08:29:00,39.9,35.5,30.12,SE,137,0.0,0.0,84,0.00,,---,0.00,VWS V14.01,2013-04-05 13:29:00,
2013-04-05 08:30:00,40.1,35.7,30.12,SE,137,0.0,0.0,84,0.00,,---,0.00,VWS V14.01,2013-04-05 13:30:00,
2013-04-05 08:33:00,40.5,36.0,30.12,SE,137,0.0,0.0,84,0.00,,---,0.00,VWS V14.01,2013-04-05 13:33:00,
2013-04-05 08:34:00,40.6,35.8,30.12,SE,137,0.0,0.0,83,0.00,,---,0.00,VWS V14.01,2013-04-05 13:34:00,
2013-04-05 08:35:00,40.7,36.0,30.12,SE,137,0.0,0.0,83,0.00,,---,0.00,VWS V14.01,2013-04-05 13:35:00,
2013-04-05 08:36:00,40.9,36.1,30.12,SE,137,0.0,0.0,83,0.00,,---,0.00,VWS V14.01,2013-04-05 13:36:00,
2013-04-05 08:39:00,41.9,37.1,30.11,SE,137,0.0,0.0,83,0.00,,---,0.00,VWS V14.01,2013-04-05 13:39:00,
2013-04-05 08:40:00,42.0,36.9,30.12,SE,137,0.0,0.0,82,0.00,,---,0.00,VWS V14.01,2013-04-05 13:40:00,
2013-04-05 08:41:00,42.1,37.0,30.12,SE,137,0.0,0.0,82,0.00,,---,0.00,VWS V14.01,2013-04-05 13:41:00,
2013-04-05 08:44:00,43.0,37.9,30.11,SE,137,0.0,1.0,82,0.00,,---,0.00,VWS V14.01,2013-04-05 13:44:00,
2013-04-05 08:45:00,43.3,38.2,30.11,SE,137,0.0,1.0,82,0.00,,---,0.00,VWS V14.01,2013-04-05 13:45:00,
2013-04-05 08:46:00,43.3,38.2,30.11,SE,137,0.0,1.0,82,0.00,,---,0.00,VWS V14.01,2013-04-05 13:46:00,
2013-04-05 08:49:00,44.0,38.5,30.11,SE,137,0.0,2.0,81,0.00,,---,0.00,VWS V14.01,2013-04-05 13:49:00,
2013-04-05 08:50:00,44.4,38.9,30.11,SE,137,1.0,2.0,81,0.00,,---,0.00,VWS V14.01,2013-04-05 13:50:00,
2013-04-05 08:52:00,44.6,38.5,30.11,SE,137,2.0,2.0,79,0.00,,---,0.00,VWS V14.01,2013-04-05 13:52:00,
2013-04-05 08:54:00,45.1,38.3,30.11,SE,136,1.0,3.0,77,0.00,,---,0.00,VWS V14.01,2013-04-05 13:54:00,
2013-04-05 08:55:00,45.5,38.4,30.11,SE,136,1.0,3.0,76,0.00,,---,0.00,VWS V14.01,2013-04-05 13:55:00,
2013-04-05 08:57:00,45.7,38.6,30.11,SE,136,1.0,3.0,76,0.00,,---,0.00,VWS V14.01,2013-04-05 13:57:00,
2013-04-05 08:59:00,46.5,39.0,30.11,SE,136,1.0,2.0,75,0.00,,---,0.00,VWS V14.01,2013-04-05 13:59:00,
2013-04-05 09:00:00,45.7,38.6,30.11,SE,136,1.0,3.0,76,0.00,,---,0.00,VWS V14.01,2013-04-05 14:00:00,
2013-04-05 09:01:00,46.7,38.9,30.11,SE,136,1.0,2.0,74,0.00,,---,0.00,VWS V14.01,2013-04-05 14:01:00,
2013-04-05 09:02:00,46.9,39.7,30.11,SE,136,1.0,2.0,76,0.00,,---,0.00,VWS V14.01,2013-04-05 14:02:00,
2013-04-05 09:04:00,47.3,39.1,30.11,SE,136,1.0,2.0,73,0.00,,---,0.00,VWS V14.01,2013-04-05 14:04:00,
2013-04-05 09:05:00,47.5,39.3,30.11,SE,136,2.0,2.0,73,0.00,,---,0.00,VWS V14.01,2013-04-05 14:05:00,
2013-04-05 09:06:00,47.7,39.8,30.11,SE,136,2.0,3.0,74,0.00,,---,0.00,VWS V14.01,2013-04-05 14:06:00,
2013-04-05 09:07:00,47.9,39.3,30.11,SE,136,2.0,3.0,72,0.00,,---,0.00,VWS V14.01,2013-04-05 14:07:00,
2013-04-05 09:09:00,48.5,40.2,30.11,SE,136,1.0,3.0,73,0.00,,---,0.00,VWS V14.01,2013-04-05 14:09:00,
2013-04-05 09:10:00,48.7,40.1,30.11,SE,136,1.0,3.0,72,0.00,,---,0.00,VWS V14.01,2013-04-05 14:10:00,
2013-04-05 09:11:00,48.9,39.9,30.11,SE,136,1.0,3.0,71,0.00,,---,0.00,VWS V14.01,2013-04-05 14:11:00,
2013-04-05 09:13:00,49.1,39.8,30.11,SE,136,2.0,3.0,70,0.00,,---,0.00,VWS V14.01,2013-04-05 14:13:00,
2013-04-05 09:14:00,49.4,39.7,30.11,SE,136,1.0,3.0,69,0.00,,---,0.00,VWS V14.01,2013-04-05 14:14:00,
2013-04-05 09:15:00,49.5,39.0,30.12,SE,136,1.0,3.0,67,0.00,,---,0.00,VWS V14.01,2013-04-05 14:15:00,
2013-04-05 09:16:00,49.5,39.8,30.12,SE,136,1.0,3.0,69,0.00,,---,0.00,VWS V14.01,2013-04-05 14:16:00,
2013-04-05 09:18:00,49.9,40.5,30.12,SE,136,1.0,3.0,70,0.00,,---,0.00,VWS V14.01,2013-04-05 14:18:00,
2013-04-05 09:19:00,50.4,40.2,30.12,SE,136,1.0,3.0,68,0.00,,---,0.00,VWS V14.01,2013-04-05 14:19:00,
2013-04-05 09:20:00,50.6,40.1,30.12,SE,136,0.0,3.0,67,0.00,,---,0.00,VWS V14.01,2013-04-05 14:20:00,
2013-04-05 09:21:00,51.2,39.5,30.12,SE,136,0.0,3.0,64,0.00,,---,0.00,VWS V14.01,2013-04-05 14:21:00,
2013-04-05 09:23:00,51.7,39.1,30.12,SE,136,0.0,3.0,62,0.00,,---,0.00,VWS V14.01,2013-04-05 14:23:00,
2013-04-05 09:25:00,52.2,35.1,30.12,SE,136,0.0,3.0,52,0.00,,---,0.00,VWS V14.01,2013-04-05 14:25:00,
2013-04-05 09:26:00,52.4,35.3,30.12,SE,136,2.0,3.0,52,0.00,,---,0.00,VWS V14.01,2013-04-05 14:26:00,
2013-04-05 09:28:00,53.1,36.4,30.12,SE,136,1.0,1.0,53,0.00,,---,0.00,VWS V14.01,2013-04-05 14:28:00,
2013-04-05 09:30:00,53.7,36.5,30.12,SE,136,0.0,2.0,52,0.00,,---,0.00,VWS V14.01,2013-04-05 14:30:00,
2013-04-05 09:31:00,53.9,36.7,30.12,SE,136,1.0,2.0,52,0.00,,---,0.00,VWS V14.01,2013-04-05 14:31:00,
2013-04-05 09:32:00,54.0,35.8,30.12,SE,136,0.0,2.0,50,0.00,,---,0.00,VWS V14.01,2013-04-05 14:32:00,
2013-04-05 09:33:00,54.4,36.7,30.12,SE,136,3.0,3.0,51,0.00,,---,0.00,VWS V14.01,2013-04-05 14:33:00,
2013-04-05 09:35:00,54.7,35.4,30.12,SE,136,1.0,4.0,48,0.00,,---,0.00,VWS V14.01,2013-04-05 14:35:00,
2013-04-05 09:36:00,54.8,35.5,30.12,WNW,290,3.0,4.0,48,0.00,,---,0.00,VWS V14.01,2013-04-05 14:36:00,
2013-04-05 09:37:00,54.9,35.6,30.11,South,177,0.0,4.0,48,0.00,,---,0.00,VWS V14.01,2013-04-05 14:37:00,
2013-04-05 09:38:00,55.0,34.6,30.11,South,177,0.0,4.0,46,0.00,,---,0.00,VWS V14.01,2013-04-05 14:38:00,
2013-04-05 09:41:00,55.7,35.8,30.11,West,273,0.0,4.0,47,0.00,,---,0.00,VWS V14.01,2013-04-05 14:41:00,
2013-04-05 09:42:00,55.9,36.0,30.11,West,279,1.0,4.0,47,0.00,,---,0.00,VWS V14.01,2013-04-05 14:42:00,
2013-04-05 09:43:00,56.1,36.7,30.11,West,279,0.0,4.0,48,0.00,,---,0.00,VWS V14.01,2013-04-05 14:43:00,
2013-04-05 09:47:00,56.4,35.3,30.11,West,265,5.0,5.0,45,0.00,,---,0.00,VWS V14.01,2013-04-05 14:47:00,
2013-04-05 09:49:00,56.7,35.0,30.11,WNW,285,5.0,5.0,44,0.00,,---,0.00,VWS V14.01,2013-04-05 14:49:00,
2013-04-05 09:52:00,56.9,34.7,30.11,NW,314,1.0,5.0,43,0.00,,---,0.00,VWS V14.01,2013-04-05 14:52:00,
2013-04-05 09:53:00,57.2,37.2,30.11,SW,233,2.0,7.0,47,0.00,,---,0.00,VWS V14.01,2013-04-05 14:53:00,
2013-04-05 09:54:00,57.3,35.6,30.11,NW,314,3.0,7.0,44,0.00,,---,0.00,VWS V14.01,2013-04-05 14:54:00,
2013-04-05 09:57:00,57.6,37.0,30.11,NW,306,3.0,7.0,46,0.00,,---,0.00,VWS V14.01,2013-04-05 14:57:00,
2013-04-05 09:59:00,57.7,34.2,30.11,NW,318,2.0,6.0,41,0.00,,---,0.00,VWS V14.01,2013-04-05 14:59:00,
2013-04-05 10:00:00,57.7,36.5,30.11,NW,318,6.0,7.0,45,0.00,,---,0.00,VWS V14.01,2013-04-05 15:00:00,
2013-04-05 10:02:00,57.7,34.8,30.11,NW,321,4.0,6.0,42,0.00,,---,0.00,VWS V14.01,2013-04-05 15:02:00,
2013-04-05 10:03:00,57.9,35.6,30.11,NW,318,3.0,6.0,43,0.00,,---,0.00,VWS V14.01,2013-04-05 15:03:00,
2013-04-05 10:04:00,58.1,34.5,30.11,NW,325,4.0,6.0,41,0.00,,---,0.00,VWS V14.01,2013-04-05 15:04:00,
2013-04-05 10:07:00,58.1,36.3,30.11,NW,316,3.0,6.0,44,0.00,,---,0.00,VWS V14.01,2013-04-05 15:07:00,
2013-04-05 10:08:00,58.2,35.2,30.11,NW,325,3.0,6.0,42,0.00,,---,0.00,VWS V14.01,2013-04-05 15:08:00,
2013-04-05 10:09:00,58.3,34.1,30.11,WNW,295,2.0,6.0,40,0.00,,---,0.00,VWS V14.01,2013-04-05 15:09:00,
2013-04-05 10:13:00,58.5,36.1,30.11,NNW,330,3.0,6.0,43,0.00,,---,0.00,VWS V14.01,2013-04-05 15:13:00,
2013-04-05 10:14:00,58.6,35.6,30.11,NNW,330,0.0,6.0,42,0.00,,---,0.00,VWS V14.01,2013-04-05 15:14:00,
2013-04-05 10:15:00,58.6,35.6,30.11,NNW,330,2.0,6.0,42,0.00,,---,0.00,VWS V14.01,2013-04-05 15:15:00,
2013-04-05 10:18:00,58.8,34.5,30.11,NW,312,0.0,6.0,40,0.00,,---,0.00,VWS V14.01,2013-04-05 15:18:00,
2013-04-05 10:19:00,58.8,33.9,30.11,NW,312,0.0,6.0,39,0.00,,---,0.00,VWS V14.01,2013-04-05 15:19:00,
2013-04-05 10:20:00,58.9,35.3,30.11,WNW,303,2.0,6.0,41,0.00,,---,0.00,VWS V14.01,2013-04-05 15:20:00,
2013-04-05 10:24:00,59.5,35.8,30.11,NW,306,0.0,6.0,41,0.00,,---,0.00,VWS V14.01,2013-04-05 15:24:00,
2013-04-05 10:26:00,59.8,34.8,30.11,NW,309,3.0,6.0,39,0.00,,---,0.00,VWS V14.01,2013-04-05 15:26:00,
2013-04-05 10:29:00,60.1,34.4,30.11,West,281,1.0,4.0,38,0.00,,---,0.00,VWS V14.01,2013-04-05 15:29:00,
2013-04-05 10:30:00,59.8,35.5,30.11,NNW,347,2.0,6.0,40,0.00,,---,0.00,VWS V14.01,2013-04-05 15:30:00,
2013-04-05 10:31:00,60.4,34.7,30.11,SW,234,4.0,5.0,38,0.00,,---,0.00,VWS V14.01,2013-04-05 15:31:00,
2013-04-05 10:34:00,60.1,36.3,30.11,NNW,330,4.0,6.0,41,0.00,,---,0.00,VWS V14.01,2013-04-05 15:34:00,
2013-04-05 10:35:00,60.2,35.2,30.11,NNW,330,1.0,6.0,39,0.00,,---,0.00,VWS V14.01,2013-04-05 15:35:00,
2013-04-05 10:36:00,60.2,35.8,30.11,NNW,330,3.0,6.0,40,0.00,,---,0.00,VWS V14.01,2013-04-05 15:36:00,
2013-04-05 10:39:00,60.4,34.7,30.11,NW,319,1.0,6.0,38,0.00,,---,0.00,VWS V14.01,2013-04-05 15:39:00,
2013-04-05 10:40:00,60.4,34.7,30.11,NW,319,0.0,6.0,38,0.00,,---,0.00,VWS V14.01,2013-04-05 15:40:00,
2013-04-05 10:42:00,60.3,35.3,30.11,North,9,1.0,6.0,39,0.00,,---,0.00,VWS V14.01,2013-04-05 15:42:00,
2013-04-05 10:44:00,60.2,35.2,30.11,North,8,2.0,6.0,39,0.00,,---,0.00,VWS V14.01,2013-04-05 15:44:00,
2013-04-05 10:45:00,60.4,35.3,30.11,North,8,2.0,6.0,39,0.00,,---,0.00,VWS V14.01,2013-04-05 15:45:00,
2013-04-05 10:46:00,60.4,34.7,30.11,North,8,1.0,6.0,38,0.00,,---,0.00,VWS V14.01,2013-04-05 15:46:00,
2013-04-05 10:47:00,60.3,35.9,30.11,NNE,14,3.0,6.0,40,0.00,,---,0.00,VWS V14.01,2013-04-05 15:47:00,
2013-04-05 10:49:00,60.5,38.5,30.11,ENE,63,2.0,6.0,44,0.00,,---,0.00,VWS V14.01,2013-04-05 15:49:00,
2013-04-05 10:51:00,60.6,37.4,30.11,NE,53,5.0,6.0,42,0.00,,---,0.00,VWS V14.01,2013-04-05 15:51:00,
2013-04-05 10:52:00,60.5,37.3,30.11,NE,50,3.0,6.0,42,0.00,,---,0.00,VWS V14.01,2013-04-05 15:52:00,
2013-04-05 10:54:00,60.4,37.2,30.11,NE,50,0.0,6.0,42,0.00,,---,0.00,VWS V14.01,2013-04-05 15:54:00,
2013-04-05 10:56:00,60.6,38.0,30.11,NE,50,3.0,6.0,43,0.00,,---,0.00,VWS V14.01,2013-04-05 15:56:00,
2013-04-05 10:57:00,60.6,35.5,30.11,NE,50,2.0,2.0,39,0.00,,---,0.00,VWS V14.01,2013-04-05 15:57:00,
2013-04-05 11:00:00,60.8,38.2,30.11,ENE,64,5.0,6.0,43,0.00,,---,0.00,VWS V14.01,2013-04-05 16:00:00,
2013-04-05 11:02:00,60.9,38.3,30.11,East,79,4.0,6.0,43,0.00,,---,0.00,VWS V14.01,2013-04-05 16:02:00,
2013-04-05 11:05:00,61.0,37.2,30.11,East,79,1.0,6.0,41,0.00,,---,0.00,VWS V14.01,2013-04-05 16:05:00,
2013-04-05 11:07:00,61.4,38.7,30.11,ENE,75,3.0,6.0,43,0.00,,---,0.00,VWS V14.01,2013-04-05 16:07:00,
2013-04-05 11:08:00,61.6,38.9,30.11,ENE,78,4.0,6.0,43,0.00,,---,0.00,VWS V14.01,2013-04-05 16:08:00,
2013-04-05 11:10:00,62.3,37.0,30.11,ENE,58,5.0,7.0,39,0.00,,---,0.00,VWS V14.01,2013-04-05 16:10:00,
2013-04-05 11:13:00,62.1,35.5,30.11,ENE,69,3.0,7.0,37,0.00,,---,0.00,VWS V14.01,2013-04-05 16:13:00,
2013-04-05 11:15:00,62.3,36.4,30.11,ENE,57,3.0,7.0,38,0.00,,---,0.00,VWS V14.01,2013-04-05 16:15:00,
2013-04-05 11:18:00,62.3,35.7,30.11,NNW,344,5.0,7.0,37,0.00,,---,0.00,VWS V14.01,2013-04-05 16:18:00,
2013-04-05 11:20:00,62.7,33.2,30.11,NW,318,2.0,7.0,33,0.00,,---,0.00,VWS V14.01,2013-04-05 16:20:00,
2013-04-05 11:23:00,62.7,36.8,30.11,SSW,211,2.0,7.0,38,0.00,,---,0.00,VWS V14.01,2013-04-05 16:23:00,
2013-04-05 11:24:00,62.6,33.1,30.11,SSW,211,2.0,7.0,33,0.00,,---,0.00,VWS V14.01,2013-04-05 16:24:00,
2013-04-05 11:26:00,62.9,34.8,30.11,SSW,211,0.0,7.0,35,0.00,,---,0.00,VWS V14.01,2013-04-05 16:26:00,
2013-04-05 11:28:00,63.6,34.7,30.11,NNW,330,3.0,6.0,34,0.00,,---,0.00,VWS V14.01,2013-04-05 16:28:00,
2013-04-05 11:29:00,63.8,34.9,30.10,NNW,345,7.0,8.0,34,0.00,,---,0.00,VWS V14.01,2013-04-05 16:29:00,
2013-04-05 11:30:00,63.5,37.5,30.11,North,353,5.0,9.0,38,0.00,,---,0.00,VWS V14.01,2013-04-05 16:30:00,
2013-04-05 11:31:00,63.9,35.0,30.10,NNW,348,3.0,8.0,34,0.00,,---,0.00,VWS V14.01,2013-04-05 16:31:00,
2013-04-05 11:33:00,64.2,34.5,30.11,West,263,2.0,8.0,33,0.00,,---,0.00,VWS V14.01,2013-04-05 16:33:00,
2013-04-05 11:35:00,64.6,35.6,30.10,NW,320,8.0,9.0,34,0.00,,---,0.00,VWS V14.01,2013-04-05 16:35:00,
2013-04-05 11:36:00,64.7,35.0,30.10,WNW,297,6.0,10.0,33,0.00,,---,0.00,VWS V14.01,2013-04-05 16:36:00,
2013-04-05 11:39:00,64.1,32.1,30.10,NW,325,2.0,10.0,30,0.00,,---,0.00,VWS V14.01,2013-04-05 16:39:00,
2013-04-05 11:40:00,64.2,34.5,30.10,NW,311,4.0,10.0,33,0.00,,---,0.00,VWS V14.01,2013-04-05 16:40:00,
2013-04-05 11:41:00,64.4,34.7,30.10,NNW,343,6.0,10.0,33,0.00,,---,0.00,VWS V14.01,2013-04-05 16:41:00,
2013-04-05 11:44:00,64.3,33.8,30.10,North,356,5.0,10.0,32,0.00,,---,0.00,VWS V14.01,2013-04-05 16:44:00,
2013-04-05 11:45:00,64.6,36.3,30.10,North,358,8.0,10.0,35,0.00,,---,0.00,VWS V14.01,2013-04-05 16:45:00,
2013-04-05 11:46:00,64.7,34.2,30.10,NW,313,7.0,10.0,32,0.00,,---,0.00,VWS V14.01,2013-04-05 16:46:00,
2013-04-05 11:47:00,64.7,32.6,30.10,NW,314,5.0,10.0,30,0.00,,---,0.00,VWS V14.01,2013-04-05 16:47:00,
2013-04-05 11:49:00,64.3,32.2,30.10,WNW,302,3.0,10.0,30,0.00,,---,0.00,VWS V14.01,2013-04-05 16:49:00,
2013-04-05 11:51:00,64.3,33.8,30.10,North,352,6.0,10.0,32,0.00,,---,0.00,VWS V14.01,2013-04-05 16:51:00,
2013-04-05 11:52:00,64.4,35.5,30.10,North,358,3.0,10.0,34,0.00,,---,0.00,VWS V14.01,2013-04-05 16:52:00,
2013-04-05 11:55:00,65.1,35.3,30.10,WNW,289,2.0,10.0,33,0.00,,---,0.00,VWS V14.01,2013-04-05 16:55:00,
2013-04-05 11:56:00,65.0,35.2,30.10,NW,321,4.0,10.0,33,0.00,,---,0.00,VWS V14.01,2013-04-05 16:56:00,
2013-04-05 11:57:00,65.0,34.5,30.10,WNW,293,5.0,10.0,32,0.00,,---,0.00,VWS V14.01,2013-04-05 16:57:00,
2013-04-05 12:00:00,65.5,35.7,30.10,West,270,4.0,9.0,33,0.00,,---,0.00,VWS V14.01,2013-04-05 17:00:00,
2013-04-05 12:01:00,65.5,36.4,30.10,West,279,5.0,9.0,34,0.00,,---,0.00,VWS V14.01,2013-04-05 17:01:00,
2013-04-05 12:02:00,65.5,36.4,30.10,WNW,287,6.0,9.0,34,0.00,,---,0.00,VWS V14.01,2013-04-05 17:02:00,
2013-04-05 12:05:00,65.1,33.7,30.10,West,280,4.0,9.0,31,0.00,,---,0.00,VWS V14.01,2013-04-05 17:05:00,
2013-04-05 12:06:00,65.0,33.7,30.10,WSW,248,2.0,9.0,31,0.00,,---,0.00,VWS V14.01,2013-04-05 17:06:00,
2013-04-05 12:07:00,64.9,35.1,30.10,WSW,247,1.0,9.0,33,0.00,,---,0.00,VWS V14.01,2013-04-05 17:07:00,
2013-04-05 12:10:00,64.8,33.5,30.10,SSW,199,0.0,9.0,31,0.00,,---,0.00,VWS V14.01,2013-04-05 17:10:00,
2013-04-05 12:11:00,64.7,32.6,30.10,SSW,199,0.0,9.0,30,0.00,,---,0.00,VWS V14.01,2013-04-05 17:11:00,
2013-04-05 12:12:00,64.6,34.1,30.10,SW,220,2.0,9.0,32,0.00,,---,0.00,VWS V14.01,2013-04-05 17:12:00,
2013-04-05 12:15:00,64.6,33.3,30.10,SE,131,3.0,9.0,31,0.00,,---,0.00,VWS V14.01,2013-04-05 17:15:00,
2013-04-05 12:17:00,64.5,34.0,30.10,ENE,76,1.0,9.0,32,0.00,,---,0.00,VWS V14.01,2013-04-05 17:17:00,
2013-04-05 12:20:00,64.5,34.0,30.09,ESE,115,1.0,9.0,32,0.00,,---,0.00,VWS V14.01,2013-04-05 17:20:00,
2013-04-05 12:22:00,64.6,35.6,30.09,ESE,115,2.0,9.0,34,0.00,,---,0.00,VWS V14.01,2013-04-05 17:22:00,
2013-04-05 12:26:00,65.6,35.0,30.09,NNE,16,7.0,9.0,32,0.00,,---,0.00,VWS V14.01,2013-04-05 17:26:00,
2013-04-05 12:27:00,65.6,35.0,30.09,North,4,7.0,9.0,32,0.00,,---,0.00,VWS V14.01,2013-04-05 17:27:00,
2013-04-05 12:30:00,65.6,35.0,30.09,North,360,8.0,9.0,32,0.00,,---,0.00,VWS V14.01,2013-04-05 17:30:00,
2013-04-05 12:31:00,65.3,34.7,30.09,North,359,5.0,8.0,32,0.00,,---,0.00,VWS V14.01,2013-04-05 17:31:00,
2013-04-05 12:32:00,65.4,34.8,30.09,NNW,344,5.0,8.0,32,0.00,,---,0.00,VWS V14.01,2013-04-05 17:32:00,
2013-04-05 12:37:00,66.3,37.8,30.09,NNW,341,6.0,8.0,35,0.00,,---,0.00,VWS V14.01,2013-04-05 17:37:00,
2013-04-05 12:38:00,66.4,35.7,30.09,NNW,335,2.0,8.0,32,0.00,,---,0.00,VWS V14.01,2013-04-05 17:38:00,
2013-04-05 12:42:00,66.4,34.9,30.09,WSW,241,2.0,8.0,31,0.00,,---,0.00,VWS V14.01,2013-04-05 17:42:00,
2013-04-05 12:43:00,66.3,34.8,30.09,WSW,237,0.0,8.0,31,0.00,,---,0.00,VWS V14.01,2013-04-05 17:43:00,
2013-04-05 12:48:00,66.7,35.1,30.09,West,263,3.0,8.0,31,0.00,,---,0.00,VWS V14.01,2013-04-05 17:48:00,
2013-04-05 12:49:00,66.5,35.8,30.09,WSW,256,1.0,8.0,32,0.00,,---,0.00,VWS V14.01,2013-04-05 17:49:00,
2013-04-05 12:53:00,66.8,36.0,30.08,NW,316,1.0,9.0,32,0.00,,---,0.00,VWS V14.01,2013-04-05 17:53:00,
2013-04-05 12:54:00,66.8,36.0,30.08,WNW,283,4.0,9.0,32,0.00,,---,0.00,VWS V14.01,2013-04-05 17:54:00,
2013-04-05 12:58:00,66.7,36.7,30.08,ESE,111,5.0,7.0,33,0.00,,---,0.00,VWS V14.01,2013-04-05 17:58:00,
2013-04-05 12:59:00,66.7,35.1,30.08,ESE,114,3.0,7.0,31,0.00,,---,0.00,VWS V14.01,2013-04-05 17:59:00,
2013-04-05 13:00:00,66.4,35.7,30.08,ESE,110,2.0,7.0,32,0.00,,---,0.00,VWS V14.01,2013-04-05 18:00:00,
2013-04-05 13:03:00,66.3,35.6,30.08,ESE,110,2.0,7.0,32,0.00,,---,0.00,VWS V14.01,2013-04-05 18:03:00,
2013-04-05 13:04:00,66.3,35.6,30.08,ESE,110,0.0,7.0,32,0.00,,---,0.00,VWS V14.01,2013-04-05 18:04:00,
2013-04-05 13:05:00,66.5,40.1,30.08,SW,224,5.0,7.0,38,0.00,,---,0.00,VWS V14.01,2013-04-05 18:05:00,
2013-04-05 13:08:00,66.8,36.0,30.07,NNE,27,8.0,8.0,32,0.00,,---,0.00,VWS V14.01,2013-04-05 18:08:00,
2013-04-05 13:09:00,66.9,39.1,30.07,NE,35,5.0,9.0,36,0.00,,---,0.00,VWS V14.01,2013-04-05 18:09:00,
2013-04-05 13:10:00,66.9,36.1,30.07,North,354,7.0,10.0,32,0.00,,---,0.00,VWS V14.01,2013-04-05 18:10:00,
2013-04-05 13:13:00,67.0,37.7,30.07,NNE,27,5.0,10.0,34,0.00,,---,0.00,VWS V14.01,2013-04-05 18:13:00,
2013-04-05 13:14:00,67.0,37.7,30.07,NNE,27,3.0,10.0,34,0.00,,---,0.00,VWS V14.01,2013-04-05 18:14:00,
2013-04-05 13:15:00,67.0,36.2,30.07,North,8,3.0,10.0,32,0.00,,---,0.00,VWS V14.01,2013-04-05 18:15:00,
2013-04-05 13:19:00,67.3,36.5,30.07,NNE,29,8.0,10.0,32,0.00,,---,0.00,VWS V14.01,2013-04-05 18:19:00,
2013-04-05 13:21:00,67.4,38.1,30.07,NNE,29,7.0,10.0,34,0.00,,---,0.00,VWS V14.01,2013-04-05 18:21:00,
2013-04-05 13:24:00,67.9,38.5,30.07,North,350,5.0,10.0,34,0.00,,---,0.00,VWS V14.01,2013-04-05 18:24:00,
2013-04-05 13:25:00,68.0,37.8,30.07,North,356,4.0,10.0,33,0.00,,---,0.00,VWS V14.01,2013-04-05 18:25:00,
2013-04-05 13:26:00,68.1,38.7,30.07,NW,317,4.0,10.0,34,0.00,,---,0.00,VWS V14.01,2013-04-05 18:26:00,
2013-04-05 13:29:00,67.9,36.2,30.07,NNE,33,3.0,8.0,31,0.00,,---,0.00,VWS V14.01,2013-04-05 18:29:00,
2013-04-05 13:30:00,67.8,37.7,30.06,North,357,8.0,8.0,33,0.00,,---,0.00,VWS V14.01,2013-04-05 18:30:00,
2013-04-05 13:31:00,68.0,39.3,30.07,WNW,293,5.0,10.0,35,0.00,,---,0.00,VWS V14.01,2013-04-05 18:31:00,
2013-04-05 13:34:00,67.8,37.7,30.06,WNW,296,2.0,10.0,33,0.00,,---,0.00,VWS V14.01,2013-04-05 18:34:00,
2013-04-05 13:35:00,67.8,37.7,30.06,North,357,5.0,10.0,33,0.00,,---,0.00,VWS V14.01,2013-04-05 18:35:00,
2013-04-05 13:36:00,67.7,36.8,30.06,North,355,4.0,10.0,32,0.00,,---,0.00,VWS V14.01,2013-04-05 18:36:00,
2013-04-05 13:37:00,67.4,36.5,30.06,North,2,0.0,10.0,32,0.00,,---,0.00,VWS V14.01,2013-04-05 18:37:00,
2013-04-05 13:39:00,67.4,40.2,30.06,North,4,0.0,10.0,37,0.00,,---,0.00,VWS V14.01,2013-04-05 18:39:00,
2013-04-05 13:40:00,67.5,40.3,30.06,North,4,0.0,10.0,37,0.00,,---,0.00,VWS V14.01,2013-04-05 18:40:00,
2013-04-05 13:41:00,67.9,40.7,30.06,NNE,23,4.0,10.0,37,0.00,,---,0.00,VWS V14.01,2013-04-05 18:41:00,
2013-04-05 13:42:00,68.1,38.7,30.06,NE,39,8.0,10.0,34,0.00,,---,0.00,VWS V14.01,2013-04-05 18:42:00,
2013-04-05 13:45:00,67.9,38.5,30.06,North,360,5.0,10.0,34,0.00,,---,0.00,VWS V14.01,2013-04-05 18:45:00,
2013-04-05 13:46:00,67.8,38.4,30.06,NNE,33,7.0,11.0,34,0.00,,---,0.00,VWS V14.01,2013-04-05 18:46:00,
2013-04-05 13:47:00,67.7,37.6,30.05,NNE,13,3.0,11.0,33,0.00,,---,0.00,VWS V14.01,2013-04-05 18:47:00,
2013-04-05 13:50:00,67.9,38.5,30.05,NNE,32,5.0,11.0,34,0.00,,---,0.00,VWS V14.01,2013-04-05 18:50:00,
2013-04-05 13:52:00,68.1,39.4,30.06,NNW,330,4.0,11.0,35,0.00,,---,0.00,VWS V14.01,2013-04-05 18:52:00,
2013-04-05 13:55:00,68.4,38.2,30.05,NNE,16,8.0,11.0,33,0.00,,---,0.00,VWS V14.01,2013-04-05 18:55:00,
2013-04-05 13:57:00,68.0,37.1,30.05,NNW,347,3.0,11.0,32,0.00,,---,0.00,VWS V14.01,2013-04-05 18:57:00,
2013-04-05 14:00:00,68.1,41.6,30.05,WNW,285,0.0,7.0,38,0.00,,---,0.00,VWS V14.01,2013-04-05 19:00:00,
2013-04-05 14:01:00,68.1,38.7,30.05,WNW,285,0.0,7.0,34,0.00,,---,0.00,VWS V14.01,2013-04-05 19:01:00,
2013-04-05 14:02:00,68.3,41.0,30.05,ESE,116,1.0,7.0,37,0.00,,---,0.00,VWS V14.01,2013-04-05 19:02:00,
2013-04-05 14:03:00,68.3,41.0,30.05,NW,304,4.0,7.0,37,0.00,,---,0.00,VWS V14.01,2013-04-05 19:03:00,
2013-04-05 14:05:00,68.6,38.4,30.05,West,270,3.0,7.0,33,0.00,,---,0.00,VWS V14.01,2013-04-05 19:05:00,
2013-04-05 14:06:00,68.6,39.1,30.05,NW,319,4.0,7.0,34,0.00,,---,0.00,VWS V14.01,2013-04-05 19:06:00,
2013-04-05 14:07:00,68.5,39.0,30.05,North,353,4.0,8.0,34,0.00,,---,0.00,VWS V14.01,2013-04-05 19:07:00,
2013-04-05 14:08:00,68.5,37.5,30.05,West,277,3.0,8.0,32,0.00,,---,0.00,VWS V14.01,2013-04-05 19:08:00,
2013-04-05 14:10:00,68.4,38.2,30.04,NW,325,8.0,8.0,33,0.00,,---,0.00,VWS V14.01,2013-04-05 19:10:00,
2013-04-05 14:12:00,68.6,38.4,30.04,NW,325,9.0,10.0,33,0.00,,---,0.00,VWS V14.01,2013-04-05 19:12:00,
2013-04-05 14:13:00,68.5,38.3,30.04,NW,314,6.0,10.0,33,0.00,,---,0.00,VWS V14.01,2013-04-05 19:13:00,
2013-04-05 14:16:00,68.4,37.4,30.04,NNE,28,1.0,10.0,32,0.00,,---,0.00,VWS V14.01,2013-04-05 19:16:00,
2013-04-05 14:17:00,68.4,39.0,30.04,NNE,28,2.0,10.0,34,0.00,,---,0.00,VWS V14.01,2013-04-05 19:17:00,
2013-04-05 14:18:00,68.4,39.0,30.04,NNE,28,1.0,10.0,34,0.00,,---,0.00,VWS V14.01,2013-04-05 19:18:00,
2013-04-05 14:21:00,68.8,40.1,30.04,WSW,238,3.0,10.0,35,0.00,,---,0.00,VWS V14.01,2013-04-05 19:21:00,
2013-04-05 14:23:00,68.6,37.6,30.04,SSW,210,2.0,10.0,32,0.00,,---,0.00,VWS V14.01,2013-04-05 19:23:00,
2013-04-05 14:27:00,68.4,39.0,30.04,South,177,5.0,10.0,34,0.00,,---,0.00,VWS V14.01,2013-04-05 19:27:00,
2013-04-05 14:28:00,68.5,41.9,30.04,SE,137,4.0,7.0,38,0.00,,---,0.00,VWS V14.01,2013-04-05 19:28:00,
2013-04-05 14:30:00,68.4,43.2,30.04,South,183,4.0,10.0,40,0.00,,---,0.00,VWS V14.01,2013-04-05 19:30:00,
2013-04-05 14:32:00,68.4,38.2,30.03,SE,140,1.0,7.0,33,0.00,,---,0.00,VWS V14.01,2013-04-05 19:32:00,
2013-04-05 14:33:00,68.5,38.3,30.03,SE,139,4.0,7.0,33,0.00,,---,0.00,VWS V14.01,2013-04-05 19:33:00,
2013-04-05 14:37:00,68.7,40.0,30.04,WNW,289,4.0,7.0,35,0.00,,---,0.00,VWS V14.01,2013-04-05 19:37:00,
2013-04-05 14:38:00,69.0,43.0,30.04,North,3,4.0,7.0,39,0.00,,---,0.00,VWS V14.01,2013-04-05 19:38:00,
2013-04-05 14:42:00,69.3,42.6,30.04,NNW,335,4.0,9.0,38,0.00,,---,0.00,VWS V14.01,2013-04-05 19:42:00,
2013-04-05 14:43:00,69.3,40.5,30.04,NNW,345,4.0,9.0,35,0.00,,---,0.00,VWS V14.01,2013-04-05 19:43:00,
2013-04-05 14:47:00,68.7,38.5,30.03,NNE,27,1.0,9.0,33,0.00,,---,0.00,VWS V14.01,2013-04-05 19:47:00,
2013-04-05 14:48:00,68.7,40.0,30.03,East,96,0.0,9.0,35,0.00,,---,0.00,VWS V14.01,2013-04-05 19:48:00,
2013-04-05 14:49:00,68.8,41.5,30.03,NNE,31,3.0,9.0,37,0.00,,---,0.00,VWS V14.01,2013-04-05 19:49:00,
2013-04-05 14:52:00,68.6,42.0,30.03,SSE,158,3.0,9.0,38,0.00,,---,0.00,VWS V14.01,2013-04-05 19:52:00,
2013-04-05 14:54:00,68.7,42.8,30.03,NE,49,5.0,9.0,39,0.00,,---,0.00,VWS V14.01,2013-04-05 19:54:00,
2013-04-05 14:57:00,68.9,41.6,30.03,South,183,3.0,3.0,37,0.00,,---,0.00,VWS V14.01,2013-04-05 19:57:00,
2013-04-05 14:59:00,69.2,39.7,30.03,NW,306,4.0,7.0,34,0.00,,---,0.00,VWS V14.01,2013-04-05 19:59:00,
2013-04-05 15:00:00,69.2,39.7,30.03,NW,306,3.0,7.0,34,0.00,,---,0.00,VWS V14.01,2013-04-05 20:00:00,
2013-04-05 15:02:00,69.0,41.0,30.02,West,279,1.0,7.0,36,0.00,,---,0.00,VWS V14.01,2013-04-05 20:02:00,
2013-04-05 15:05:00,69.1,40.3,30.02,SW,230,0.0,7.0,35,0.00,,---,0.00,VWS V14.01,2013-04-05 20:05:00,
2013-04-05 15:08:00,69.2,39.7,30.02,South,181,2.0,7.0,34,0.00,,---,0.00,VWS V14.01,2013-04-05 20:08:00,
2013-04-05 15:10:00,69.3,40.5,30.02,SE,143,4.0,8.0,35,0.00,,---,0.00,VWS V14.01,2013-04-05 20:10:00,
2013-04-05 15:13:00,69.1,40.3,30.02,West,265,3.0,8.0,35,0.00,,---,0.00,VWS V14.01,2013-04-05 20:13:00,
2013-04-05 15:15:00,69.0,41.0,30.02,NNE,23,5.0,8.0,36,0.00,,---,0.00,VWS V14.01,2013-04-05 20:15:00,
2013-04-05 15:18:00,68.8,40.8,30.02,NNE,17,3.0,9.0,36,0.00,,---,0.00,VWS V14.01,2013-04-05 20:18:00,
2013-04-05 15:20:00,68.6,39.9,30.02,NNE,26,0.0,9.0,35,0.00,,---,0.00,VWS V14.01,2013-04-05 20:20:00,
2013-04-05 15:23:00,68.8,41.5,30.02,NE,54,6.0,9.0,37,0.00,,---,0.00,VWS V14.01,2013-04-05 20:23:00,
2013-04-05 15:25:00,68.7,41.4,30.02,NE,49,5.0,9.0,37,0.00,,---,0.00,VWS V14.01,2013-04-05 20:25:00,
2013-04-05 15:28:00,68.6,41.3,30.02,NNE,27,3.0,10.0,37,0.00,,---,0.00,VWS V14.01,2013-04-05 20:28:00,
2013-04-05 15:30:00,69.0,43.0,30.01,North,350,4.0,10.0,39,0.00,,---,0.00,VWS V14.01,2013-04-05 20:30:00,
2013-04-05 15:31:00,69.0,43.0,30.01,NE,50,7.0,10.0,39,0.00,,---,0.00,VWS V14.01,2013-04-05 20:31:00,
2013-04-05 15:34:00,68.8,40.8,30.01,ENE,62,6.0,10.0,36,0.00,,---,0.00,VWS V14.01,2013-04-05 20:34:00,
2013-04-05 15:35:00,68.7,42.8,30.01,NNW,345,3.0,10.0,39,0.00,,---,0.00,VWS V14.01,2013-04-05 20:35:00,
2013-04-05 15:36:00,68.9,42.3,30.01,NW,325,6.0,10.0,38,0.00,,---,0.00,VWS V14.01,2013-04-05 20:36:00,
2013-04-05 15:39:00,69.2,42.5,30.01,ENE,75,2.0,10.0,38,0.00,,---,0.00,VWS V14.01,2013-04-05 20:39:00,
2013-04-05 15:41:00,68.9,40.9,30.01,ENE,75,0.0,10.0,36,0.00,,---,0.00,VWS V14.01,2013-04-05 20:41:00,
2013-04-05 15:42:00,68.7,42.1,30.01,ENE,75,1.0,10.0,38,0.00,,---,0.00,VWS V14.01,2013-04-05 20:42:00,
2013-04-05 15:44:00,68.9,42.3,30.01,East,96,7.0,11.0,38,0.00,,---,0.00,VWS V14.01,2013-04-05 20:44:00,
2013-04-05 15:46:00,69.0,43.7,30.01,NNE,13,3.0,11.0,40,0.00,,---,0.00,VWS V14.01,2013-04-05 20:46:00,
2013-04-05 15:47:00,69.2,41.8,30.01,North,359,4.0,11.0,37,0.00,,---,0.00,VWS V14.01,2013-04-05 20:47:00,
2013-04-05 15:49:00,69.5,42.1,30.01,NW,314,7.0,11.0,37,0.00,,---,0.00,VWS V14.01,2013-04-05 20:49:00,
2013-04-05 15:51:00,69.6,42.9,30.01,NW,316,6.0,11.0,38,0.00,,---,0.00,VWS V14.01,2013-04-05 20:51:00,
2013-04-05 15:52:00,69.7,41.6,30.01,NNW,339,3.0,11.0,36,0.00,,---,0.00,VWS V14.01,2013-04-05 20:52:00,
2013-04-05 15:55:00,69.9,41.0,30.01,NW,319,4.0,11.0,35,0.00,,---,0.00,VWS V14.01,2013-04-05 20:55:00,
2013-04-05 15:56:00,70.0,41.8,30.01,NW,320,4.0,11.0,36,0.00,,---,0.00,VWS V14.01,2013-04-05 20:56:00,
2013-04-05 15:57:00,70.0,42.6,30.01,NW,325,3.0,11.0,37,0.00,,---,0.00,VWS V14.01,2013-04-05 20:57:00,
2013-04-05 16:00:00,70.1,41.9,30.01,NE,45,4.0,7.0,36,0.00,,---,0.00,VWS V14.01,2013-04-05 21:00:00,
2013-04-05 16:02:00,70.1,41.2,30.01,NW,320,4.0,7.0,35,0.00,,---,0.00,VWS V14.01,2013-04-05 21:02:00,
2013-04-05 16:05:00,70.1,42.7,30.00,North,1,2.0,7.0,37,0.00,,---,0.00,VWS V14.01,2013-04-05 21:05:00,
2013-04-05 16:07:00,70.4,42.9,30.00,NNW,341,6.0,7.0,37,0.00,,---,0.00,VWS V14.01,2013-04-05 21:07:00,
2013-04-05 16:08:00,70.5,40.8,30.00,NW,325,5.0,9.0,34,0.00,,---,0.00,VWS V14.01,2013-04-05 21:08:00,
2013-04-05 16:11:00,70.3,41.4,30.00,North,359,9.0,9.0,35,0.00,,---,0.00,VWS V14.01,2013-04-05 21:11:00,
2013-04-05 16:12:00,70.2,41.3,30.00,NW,325,4.0,9.0,35,0.00,,---,0.00,VWS V14.01,2013-04-05 21:12:00,
2013-04-05 16:13:00,70.2,41.3,30.00,North,360,5.0,9.0,35,0.00,,---,0.00,VWS V14.01,2013-04-05 21:13:00,
2013-04-05 16:16:00,69.9,41.8,30.00,North,358,4.0,9.0,36,0.00,,---,0.00,VWS V14.01,2013-04-05 21:16:00,
2013-04-05 16:18:00,70.0,41.8,30.00,NW,310,6.0,9.0,36,0.00,,---,0.00,VWS V14.01,2013-04-05 21:18:00,
2013-04-05 16:19:00,70.0,41.1,30.00,WNW,287,5.0,9.0,35,0.00,,---,0.00,VWS V14.01,2013-04-05 21:19:00,
2013-04-05 16:21:00,70.0,42.6,30.00,NW,308,8.0,9.0,37,0.00,,---,0.00,VWS V14.01,2013-04-05 21:21:00,
2013-04-05 16:24:00,70.0,41.8,30.00,NNW,330,6.0,10.0,36,0.00,,---,0.00,VWS V14.01,2013-04-05 21:24:00,
2013-04-05 16:26:00,69.7,42.3,30.00,North,356,6.0,10.0,37,0.00,,---,0.00,VWS V14.01,2013-04-05 21:26:00,
2013-04-05 16:29:00,69.4,41.3,30.00,North,356,7.0,12.0,36,0.00,,---,0.00,VWS V14.01,2013-04-05 21:29:00,
2013-04-05 16:30:00,69.6,42.2,30.00,North,359,9.0,10.0,37,0.00,,---,0.00,VWS V14.01,2013-04-05 21:30:00,
2013-04-05 16:32:00,69.3,41.9,30.00,North,358,6.0,12.0,37,0.00,,---,0.00,VWS V14.01,2013-04-05 21:32:00,
2013-04-05 16:34:00,69.4,41.3,30.00,North,351,9.0,12.0,36,0.00,,---,0.00,VWS V14.01,2013-04-05 21:34:00,
2013-04-05 16:35:00,69.4,41.3,30.00,North,353,9.0,12.0,36,0.00,,---,0.00,VWS V14.01,2013-04-05 21:35:00,
2013-04-05 16:37:00,69.2,40.4,30.00,NW,321,5.0,12.0,35,0.00,,---,0.00,VWS V14.01,2013-04-05 21:37:00,
2013-04-05 16:40:00,69.3,41.9,30.00,North,10,3.0,12.0,37,0.00,,---,0.00,VWS V14.01,2013-04-05 21:40:00,
2013-04-05 16:42:00,69.3,41.2,30.00,North,351,5.0,12.0,36,0.00,,---,0.00,VWS V14.01,2013-04-05 21:42:00,
2013-04-05 16:45:00,69.0,40.2,30.00,North,5,5.0,12.0,35,0.00,,---,0.00,VWS V14.01,2013-04-05 21:45:00,
2013-04-05 16:47:00,69.0,40.2,30.00,NNE,18,4.0,12.0,35,0.00,,---,0.00,VWS V14.01,2013-04-05 21:47:00,
2013-04-05 16:50:00,69.0,41.7,30.00,North,8,4.0,12.0,37,0.00,,---,0.00,VWS V14.01,2013-04-05 21:50:00,
2013-04-05 16:51:00,68.9,41.6,30.00,NNE,19,7.0,12.0,37,0.00,,---,0.00,VWS V14.01,2013-04-05 21:51:00,
2013-04-05 16:52:00,68.9,39.4,30.00,NNE,23,4.0,12.0,34,0.00,,---,0.00,VWS V14.01,2013-04-05 21:52:00,
2013-04-05 16:55:00,68.7,40.7,30.00,NNE,29,7.0,12.0,36,0.00,,---,0.00,VWS V14.01,2013-04-05 21:55:00,
2013-04-05 16:56:00,68.7,40.7,30.00,NNE,31,5.0,12.0,36,0.00,,---,0.00,VWS V14.01,2013-04-05 21:56:00,
2013-04-05 16:57:00,68.7,40.7,30.00,NE,41,8.0,12.0,36,0.00,,---,0.00,VWS V14.01,2013-04-05 21:57:00,
2013-04-05 17:00:00,68.6,40.6,30.00,NE,39,7.0,12.0,36,0.00,,---,0.00,VWS V14.01,2013-04-05 22:00:00,
2013-04-05 17:01:00,68.8,40.8,30.00,NNE,16,5.0,10.0,36,0.00,,---,0.00,VWS V14.01,2013-04-05 22:01:00,
2013-04-05 17:02:00,68.7,39.2,30.00,North,9,5.0,10.0,34,0.00,,---,0.00,VWS V14.01,2013-04-05 22:02:00,
2013-04-05 17:06:00,68.6,39.9,30.00,NNE,31,3.0,10.0,35,0.00,,---,0.00,VWS V14.01,2013-04-05 22:06:00,
2013-04-05 17:07:00,68.5,40.5,30.01,North,4,4.0,10.0,36,0.00,,---,0.00,VWS V14.01,2013-04-05 22:07:00,
2013-04-05 17:09:00,68.5,39.8,30.01,North,350,4.0,10.0,35,0.00,,---,0.00,VWS V14.01,2013-04-05 22:09:00,
2013-04-05 17:11:00,68.6,39.9,30.01,NE,37,2.0,10.0,35,0.00,,---,0.00,VWS V14.01,2013-04-05 22:11:00,
2013-04-05 17:12:00,68.6,41.3,30.01,NNE,25,3.0,10.0,37,0.00,,---,0.00,VWS V14.01,2013-04-05 22:12:00,
2013-04-05 17:14:00,68.7,40.0,30.01,North,355,2.0,10.0,35,0.00,,---,0.00,VWS V14.01,2013-04-05 22:14:00,
2013-04-05 17:17:00,68.8,40.1,30.01,NNE,33,8.0,10.0,35,0.00,,---,0.00,VWS V14.01,2013-04-05 22:17:00,
2013-04-05 17:19:00,68.6,39.9,30.01,NNE,29,7.0,10.0,35,0.00,,---,0.00,VWS V14.01,2013-04-05 22:19:00,
2013-04-05 17:22:00,68.7,40.0,30.01,North,357,4.0,10.0,35,0.00,,---,0.00,VWS V14.01,2013-04-05 22:22:00,
2013-04-05 17:23:00,68.7,40.0,30.01,NE,37,5.0,10.0,35,0.00,,---,0.00,VWS V14.01,2013-04-05 22:23:00,
2013-04-05 17:24:00,68.6,39.9,30.01,NNE,18,4.0,10.0,35,0.00,,---,0.00,VWS V14.01,2013-04-05 22:24:00,
2013-04-05 17:27:00,68.6,39.9,30.01,North,11,3.0,10.0,35,0.00,,---,0.00,VWS V14.01,2013-04-05 22:27:00,
2013-04-05 17:28:00,68.5,39.8,30.01,NE,47,3.0,3.0,35,0.00,,---,0.00,VWS V14.01,2013-04-05 22:28:00,
2013-04-05 17:29:00,68.5,43.2,30.01,NE,40,4.0,7.0,40,0.00,,---,0.00,VWS V14.01,2013-04-05 22:29:00,
2013-04-05 17:30:00,68.6,39.9,30.01,North,11,3.0,10.0,35,0.00,,---,0.00,VWS V14.01,2013-04-05 22:30:00,
2013-04-05 17:32:00,68.7,42.8,30.01,NW,316,0.0,7.0,39,0.00,,---,0.00,VWS V14.01,2013-04-05 22:32:00,
2013-04-05 17:33:00,68.7,42.8,30.01,NE,46,2.0,7.0,39,0.00,,---,0.00,VWS V14.01,2013-04-05 22:33:00,
2013-04-05 17:34:00,68.6,41.3,30.01,North,10,3.0,7.0,37,0.00,,---,0.00,VWS V14.01,2013-04-05 22:34:00,
2013-04-05 17:37:00,68.5,39.8,30.01,North,10,2.0,8.0,35,0.00,,---,0.00,VWS V14.01,2013-04-05 22:37:00,
2013-04-05 17:38:00,68.5,39.8,30.01,NNE,21,3.0,8.0,35,0.00,,---,0.00,VWS V14.01,2013-04-05 22:38:00,
2013-04-05 17:39:00,68.5,40.5,30.01,NNE,21,0.0,8.0,36,0.00,,---,0.00,VWS V14.01,2013-04-05 22:39:00,
2013-04-05 17:43:00,68.3,40.3,30.01,NNE,25,3.0,8.0,36,0.00,,---,0.00,VWS V14.01,2013-04-05 22:43:00,
2013-04-05 17:44:00,68.3,40.3,30.01,NNE,25,1.0,8.0,36,0.00,,---,0.00,VWS V14.01,2013-04-05 22:44:00,
2013-04-05 17:48:00,68.3,40.3,30.01,NNW,347,4.0,8.0,36,0.00,,---,0.00,VWS V14.01,2013-04-05 22:48:00,
2013-04-05 17:49:00,68.4,41.1,30.01,North,6,1.0,8.0,37,0.00,,---,0.00,VWS V14.01,2013-04-05 22:49:00,
2013-04-05 17:53:00,68.1,40.9,30.01,NE,50,3.0,8.0,37,0.00,,---,0.00,VWS V14.01,2013-04-05 22:53:00,
2013-04-05 17:54:00,68.0,41.5,30.01,NNE,27,3.0,8.0,38,0.00,,---,0.00,VWS V14.01,2013-04-05 22:54:00,
2013-04-05 17:55:00,67.9,40.7,30.01,NNE,27,2.0,8.0,37,0.00,,---,0.00,VWS V14.01,2013-04-05 22:55:00,
2013-04-05 17:58:00,67.7,42.5,30.01,NE,35,3.0,6.0,40,0.00,,---,0.00,VWS V14.01,2013-04-05 22:58:00,
2013-04-05 17:59:00,67.6,41.1,30.01,NE,56,7.0,8.0,38,0.00,,---,0.00,VWS V14.01,2013-04-05 22:59:00,
2013-04-05 18:00:00,67.6,40.4,30.01,NNE,33,2.0,8.0,37,0.00,,---,0.00,VWS V14.01,2013-04-05 23:00:00,
2013-04-05 18:03:00,67.6,40.4,30.01,NE,37,7.0,10.0,37,0.00,,---,0.00,VWS V14.01,2013-04-05 23:03:00,
2013-04-05 18:04:00,67.6,40.4,30.01,NE,48,8.0,10.0,37,0.00,,---,0.00,VWS V14.01,2013-04-05 23:04:00,
2013-04-05 18:05:00,67.5,40.3,30.01,NE,44,5.0,10.0,37,0.00,,---,0.00,VWS V14.01,2013-04-05 23:05:00,
2013-04-05 18:08:00,67.4,40.9,30.01,NE,51,5.0,10.0,38,0.00,,---,0.00,VWS V14.01,2013-04-05 23:08:00,
2013-04-05 18:10:00,67.4,40.2,30.01,NNE,18,2.0,10.0,37,0.00,,---,0.00,VWS V14.01,2013-04-05 23:10:00,
2013-04-05 18:13:00,67.4,39.5,30.01,NNE,13,3.0,10.0,36,0.00,,---,0.00,VWS V14.01,2013-04-05 23:13:00,
2013-04-05 18:15:00,67.4,40.2,30.01,NNE,13,0.0,10.0,37,0.00,,---,0.00,VWS V14.01,2013-04-05 23:15:00,
2013-04-05 18:16:00,67.3,41.5,30.01,NNE,13,0.0,10.0,39,0.00,,---,0.00,VWS V14.01,2013-04-05 23:16:00,
2013-04-05 18:18:00,67.2,41.4,30.01,NNE,13,0.0,10.0,39,0.00,,---,0.00,VWS V14.01,2013-04-05 23:18:00,
2013-04-05 18:20:00,67.2,40.8,30.01,NNE,13,0.0,10.0,38,0.00,,---,0.00,VWS V14.01,2013-04-05 23:20:00,
2013-04-05 18:21:00,67.1,40.7,30.01,NNE,13,2.0,10.0,38,0.00,,---,0.00,VWS V14.01,2013-04-05 23:21:00,
2013-04-05 18:24:00,67.0,39.9,30.01,North,360,2.0,10.0,37,0.00,,---,0.00,VWS V14.01,2013-04-05 23:24:00,
2013-04-05 18:26:00,67.2,40.1,30.01,ENE,66,3.0,10.0,37,0.00,,---,0.00,VWS V14.01,2013-04-05 23:26:00,
2013-04-05 18:27:00,67.2,40.8,30.01,ENE,66,1.0,10.0,38,0.00,,---,0.00,VWS V14.01,2013-04-05 23:27:00,
2013-04-05 18:29:00,67.1,40.0,30.01,ENE,66,1.0,2.0,37,0.00,,---,0.00,VWS V14.01,2013-04-05 23:29:00,
2013-04-05 18:30:00,67.1,42.0,30.01,ENE,66,2.0,10.0,40,0.00,,---,0.00,VWS V14.01,2013-04-05 23:30:00,
2013-04-05 18:31:00,67.1,39.3,30.01,ENE,66,1.0,3.0,36,0.00,,---,0.00,VWS V14.01,2013-04-05 23:31:00,
2013-04-05 18:32:00,67.0,41.2,30.01,ENE,66,2.0,3.0,39,0.00,,---,0.00,VWS V14.01,2013-04-05 23:32:00,
2013-04-05 18:33:00,67.0,41.2,30.01,ENE,66,1.0,3.0,39,0.00,,---,0.00,VWS V14.01,2013-04-05 23:33:00,
2013-04-05 18:34:00,66.9,40.5,30.01,ENE,66,2.0,5.0,38,0.00,,---,0.00,VWS V14.01,2013-04-05 23:34:00,
2013-04-05 18:36:00,66.9,40.5,30.01,NE,44,3.0,5.0,38,0.00,,---,0.00,VWS V14.01,2013-04-05 23:36:00,
2013-04-05 18:37:00,66.9,40.5,30.01,NE,34,2.0,5.0,38,0.00,,---,0.00,VWS V14.01,2013-04-05 23:37:00,
2013-04-05 18:38:00,66.9,41.2,30.01,NE,34,0.0,5.0,39,0.00,,---,0.00,VWS V14.01,2013-04-05 23:38:00,
2013-04-05 18:39:00,66.8,41.7,30.01,NE,34,0.0,5.0,40,0.00,,---,0.00,VWS V14.01,2013-04-05 23:39:00,
2013-04-05 18:41:00,66.7,41.6,30.01,NE,34,0.0,5.0,40,0.00,,---,0.00,VWS V14.01,2013-04-05 23:41:00,
2013-04-05 18:42:00,66.7,40.3,30.01,NE,34,2.0,5.0,38,0.00,,---,0.00,VWS V14.01,2013-04-05 23:42:00,
2013-04-05 18:43:00,66.7,40.3,30.01,NE,34,2.0,5.0,38,0.00,,---,0.00,VWS V14.01,2013-04-05 23:43:00,
2013-04-05 18:44:00,66.7,41.0,30.01,NE,34,0.0,5.0,39,0.00,,---,0.00,VWS V14.01,2013-04-05 23:44:00,
2013-04-05 18:46:00,66.7,41.0,30.01,NE,34,2.0,5.0,39,0.00,,---,0.00,VWS V14.01,2013-04-05 23:46:00,
2013-04-05 18:47:00,66.7,41.0,30.01,NE,34,2.0,5.0,39,0.00,,---,0.00,VWS V14.01,2013-04-05 23:47:00,
2013-04-05 18:48:00,66.6,40.9,30.01,NE,34,2.0,5.0,39,0.00,,---,0.00,VWS V14.01,2013-04-05 23:48:00,
2013-04-05 18:49:00,66.7,41.0,30.01,NE,34,1.0,5.0,39,0.00,,---,0.00,VWS V14.01,2013-04-05 23:49:00,
2013-04-05 18:52:00,66.5,40.8,30.01,NE,35,1.0,5.0,39,0.00,,---,0.00,VWS V14.01,2013-04-05 23:52:00,
2013-04-05 18:53:00,66.4,42.0,30.01,NE,35,0.0,5.0,41,0.00,,---,0.00,VWS V14.01,2013-04-05 23:53:00,
2013-04-05 18:54:00,66.3,41.3,30.01,NE,35,1.0,5.0,40,0.00,,---,0.00,VWS V14.01,2013-04-05 23:54:00,
2013-04-05 18:57:00,66.2,41.2,30.01,NE,35,0.0,5.0,40,0.00,,---,0.00,VWS V14.01,2013-04-05 23:57:00,
2013-04-05 18:59:00,66.1,41.7,30.01,NE,35,0.0,1.0,41,0.00,,---,0.00,VWS V14.01,2013-04-05 23:59:00,
2013-04-05 19:00:00,66.2,41.2,30.01,NE,35,0.0,5.0,40,0.00,,---,0.00,VWS V14.01,2013-04-06 00:00:00,
2013-04-05 19:02:00,65.9,40.9,30.01,NE,35,0.0,1.0,40,0.00,,---,0.00,VWS V14.01,2013-04-06 00:02:00,
2013-04-05 19:04:00,65.8,40.8,30.01,NE,35,1.0,1.0,40,0.00,,---,0.00,VWS V14.01,2013-04-06 00:04:00,
2013-04-05 19:08:00,65.4,41.1,30.01,NE,35,0.0,3.0,41,0.00,,---,0.00,VWS V14.01,2013-04-06 00:08:00,
2013-04-05 19:09:00,65.2,40.9,30.01,NE,35,1.0,3.0,41,0.00,,---,0.00,VWS V14.01,2013-04-06 00:09:00,
2013-04-05 19:10:00,65.3,41.0,30.01,NE,35,2.0,3.0,41,0.00,,---,0.00,VWS V14.01,2013-04-06 00:10:00,
2013-04-05 19:13:00,65.1,40.2,30.01,NE,35,1.0,3.0,40,0.00,,---,0.00,VWS V14.01,2013-04-06 00:13:00,
2013-04-05 19:14:00,65.1,40.2,30.01,NE,35,0.0,3.0,40,0.00,,---,0.00,VWS V14.01,2013-04-06 00:14:00,
2013-04-05 19:15:00,65.1,40.2,30.01,NE,35,0.0,3.0,40,0.00,,---,0.00,VWS V14.01,2013-04-06 00:15:00,
2013-04-05 19:18:00,64.9,40.0,30.01,NE,35,0.0,3.0,40,0.00,,---,0.00,VWS V14.01,2013-04-06 00:18:00,
2013-04-05 19:20:00,64.9,40.0,30.01,NE,35,0.0,3.0,40,0.00,,---,0.00,VWS V14.01,2013-04-06 00:20:00,
2013-04-05 19:23:00,64.8,39.3,30.01,NE,35,0.0,3.0,39,0.00,,---,0.00,VWS V14.01,2013-04-06 00:23:00,
2013-04-05 19:25:00,64.7,41.1,30.01,NE,35,0.0,3.0,42,0.00,,---,0.00,VWS V14.01,2013-04-06 00:25:00,
2013-04-05 19:26:00,64.3,41.3,30.02,NE,35,0.0,3.0,43,0.00,,---,0.00,VWS V14.01,2013-04-06 00:26:00,
2013-04-05 19:29:00,63.8,41.5,30.02,NE,35,0.0,0.0,44,0.00,,---,0.00,VWS V14.01,2013-04-06 00:29:00,
2013-04-05 19:30:00,63.6,41.3,30.02,NE,35,0.0,0.0,44,0.00,,---,0.00,VWS V14.01,2013-04-06 00:30:00,
2013-04-05 19:31:00,63.5,41.8,30.02,NE,35,0.0,0.0,45,0.00,,---,0.00,VWS V14.01,2013-04-06 00:31:00,
2013-04-05 19:34:00,63.4,41.7,30.02,NE,35,0.0,1.0,45,0.00,,---,0.00,VWS V14.01,2013-04-06 00:34:00,
2013-04-05 19:35:00,63.4,41.1,30.02,NE,35,0.0,1.0,44,0.00,,---,0.00,VWS V14.01,2013-04-06 00:35:00,
2013-04-05 19:36:00,63.4,41.1,30.02,NE,35,0.0,1.0,44,0.00,,---,0.00,VWS V14.01,2013-04-06 00:36:00,
2013-04-05 19:37:00,63.5,40.6,30.02,NE,35,0.0,1.0,43,0.00,,---,0.00,VWS V14.01,2013-04-06 00:37:00,
2013-04-05 19:39:00,63.5,41.2,30.02,NE,35,0.0,1.0,44,0.00,,---,0.00,VWS V14.01,2013-04-06 00:39:00,
2013-04-05 19:40:00,63.4,41.1,30.02,NE,35,0.0,1.0,44,0.00,,---,0.00,VWS V14.01,2013-04-06 00:40:00,
2013-04-05 19:41:00,63.3,41.0,30.02,NE,35,0.0,1.0,44,0.00,,---,0.00,VWS V14.01,2013-04-06 00:41:00,
2013-04-05 19:42:00,63.1,40.9,30.02,NE,35,0.0,1.0,44,0.00,,---,0.00,VWS V14.01,2013-04-06 00:42:00,
2013-04-05 19:44:00,62.9,40.7,30.02,NE,35,0.0,1.0,44,0.00,,---,0.00,VWS V14.01,2013-04-06 00:44:00,
2013-04-05 19:45:00,62.8,40.6,30.02,NE,35,0.0,1.0,44,0.00,,---,0.00,VWS V14.01,2013-04-06 00:45:00,
2013-04-05 19:46:00,62.7,40.5,30.02,NE,35,0.0,1.0,44,0.00,,---,0.00,VWS V14.01,2013-04-06 00:46:00,
2013-04-05 19:47:00,62.6,40.4,30.02,NE,35,0.0,1.0,44,0.00,,---,0.00,VWS V14.01,2013-04-06 00:47:00,
2013-04-05 19:49:00,62.4,40.8,30.02,NE,35,0.0,1.0,45,0.00,,---,0.00,VWS V14.01,2013-04-06 00:49:00,
2013-04-05 19:51:00,62.3,40.7,30.02,NE,35,0.0,1.0,45,0.00,,---,0.00,VWS V14.01,2013-04-06 00:51:00,
2013-04-05 19:52:00,62.1,40.5,30.02,NE,35,0.0,1.0,45,0.00,,---,0.00,VWS V14.01,2013-04-06 00:52:00,
2013-04-05 19:54:00,61.8,41.9,30.02,NE,35,0.0,1.0,48,0.00,,---,0.00,VWS V14.01,2013-04-06 00:54:00,
2013-04-05 19:56:00,61.6,42.3,30.02,NE,35,0.0,1.0,49,0.00,,---,0.00,VWS V14.01,2013-04-06 00:56:00,
2013-04-05 19:57:00,61.5,42.2,30.02,NE,35,0.0,1.0,49,0.00,,---,0.00,VWS V14.01,2013-04-06 00:57:00,
2013-04-05 19:59:00,61.3,42.5,30.02,NE,35,0.0,0.0,50,0.00,,---,0.00,VWS V14.01,2013-04-06 00:59:00,
2013-04-05 20:00:00,61.5,42.2,30.02,NE,35,0.0,1.0,49,0.00,,---,0.00,VWS V14.01,2013-04-06 01:00:00,
2013-04-05 20:01:00,61.2,41.4,30.02,NE,35,0.0,0.0,48,0.00,,---,0.00,VWS V14.01,2013-04-06 01:01:00,
2013-04-05 20:02:00,61.2,41.4,30.02,NE,35,0.0,0.0,48,0.00,,---,0.00,VWS V14.01,2013-04-06 01:02:00,
2013-04-05 20:03:00,61.1,40.7,30.02,NE,35,0.0,0.0,47,0.00,,---,0.00,VWS V14.01,2013-04-06 01:03:00,
2013-04-05 20:05:00,60.9,40.5,30.02,NE,35,0.0,0.0,47,0.00,,---,0.00,VWS V14.01,2013-04-06 01:05:00,
2013-04-05 20:06:00,60.7,40.9,30.03,NE,35,0.0,0.0,48,0.00,,---,0.00,VWS V14.01,2013-04-06 01:06:00,
2013-04-05 20:07:00,60.7,40.9,30.03,NE,35,0.0,0.0,48,0.00,,---,0.00,VWS V14.01,2013-04-06 01:07:00,
2013-04-05 20:08:00,60.6,40.3,30.03,NE,35,0.0,0.0,47,0.00,,---,0.00,VWS V14.01,2013-04-06 01:08:00,
2013-04-05 20:10:00,60.4,40.1,30.03,NE,35,0.0,0.0,47,0.00,,---,0.00,VWS V14.01,2013-04-06 01:10:00,
2013-04-05 20:11:00,60.3,41.1,30.03,NE,35,0.0,0.0,49,0.00,,---,0.00,VWS V14.01,2013-04-06 01:11:00,
2013-04-05 20:12:00,60.2,41.0,30.03,NE,35,0.0,0.0,49,0.00,,---,0.00,VWS V14.01,2013-04-06 01:12:00,
2013-04-05 20:13:00,60.1,40.9,30.03,NE,35,0.0,1.0,49,0.00,,---,0.00,VWS V14.01,2013-04-06 01:13:00,
2013-04-05 20:15:00,59.9,41.2,30.03,NE,35,0.0,1.0,50,0.00,,---,0.00,VWS V14.01,2013-04-06 01:15:00,
2013-04-05 20:16:00,59.7,41.6,30.03,NE,35,2.0,2.0,51,0.00,,---,0.00,VWS V14.01,2013-04-06 01:16:00,
2013-04-05 20:17:00,59.6,42.5,30.03,ESE,104,3.0,3.0,53,0.00,,---,0.00,VWS V14.01,2013-04-06 01:17:00,
2013-04-05 20:18:00,59.5,42.4,30.03,ESE,104,2.0,3.0,53,0.00,,---,0.00,VWS V14.01,2013-04-06 01:18:00,
2013-04-05 20:20:00,58.6,43.4,30.03,ESE,104,0.0,3.0,57,0.00,,---,0.00,VWS V14.01,2013-04-06 01:20:00,
2013-04-05 20:21:00,58.3,43.6,30.03,ESE,104,0.0,3.0,58,0.00,,---,0.00,VWS V14.01,2013-04-06 01:21:00,
2013-04-05 20:22:00,58.0,43.3,30.03,ESE,104,1.0,3.0,58,0.00,,---,0.00,VWS V14.01,2013-04-06 01:22:00,
2013-04-05 20:23:00,57.9,41.8,30.03,ESE,104,0.0,3.0,55,0.00,,---,0.00,VWS V14.01,2013-04-06 01:23:00,
2013-04-05 20:25:00,58.4,41.3,30.03,ESE,104,0.0,3.0,53,0.00,,---,0.00,VWS V14.01,2013-04-06 01:25:00,
2013-04-05 20:27:00,58.5,43.3,30.03,ESE,104,0.0,3.0,57,0.00,,---,0.00,VWS V14.01,2013-04-06 01:27:00,
2013-04-05 20:28:00,58.2,42.6,30.03,ESE,104,0.0,0.0,56,0.00,,---,0.00,VWS V14.01,2013-04-06 01:28:00,
2013-04-05 20:30:00,58.4,43.2,30.03,ESE,104,0.0,3.0,57,0.00,,---,0.00,VWS V14.01,2013-04-06 01:30:00,
2013-04-05 20:31:00,57.8,42.7,30.03,ESE,104,0.0,0.0,57,0.00,,---,0.00,VWS V14.01,2013-04-06 01:31:00,
2013-04-05 20:33:00,57.5,41.9,30.03,ESE,104,0.0,0.0,56,0.00,,---,0.00,VWS V14.01,2013-04-06 01:33:00,
2013-04-05 20:36:00,57.6,41.1,30.03,ESE,104,0.0,1.0,54,0.00,,---,0.00,VWS V14.01,2013-04-06 01:36:00,
2013-04-05 20:38:00,57.6,41.1,30.03,ESE,104,0.0,1.0,54,0.00,,---,0.00,VWS V14.01,2013-04-06 01:38:00,
2013-04-05 20:42:00,57.5,41.0,30.04,ESE,104,0.0,1.0,54,0.00,,---,0.00,VWS V14.01,2013-04-06 01:42:00,
2013-04-05 20:43:00,57.5,41.0,30.04,ESE,104,0.0,1.0,54,0.00,,---,0.00,VWS V14.01,2013-04-06 01:43:00,
2013-04-05 20:47:00,57.6,41.1,30.04,ESE,104,0.0,1.0,54,0.00,,---,0.00,VWS V14.01,2013-04-06 01:47:00,
2013-04-05 20:48:00,57.5,41.0,30.04,ESE,104,0.0,1.0,54,0.00,,---,0.00,VWS V14.01,2013-04-06 01:48:00,
2013-04-05 20:52:00,57.1,42.5,30.04,ESE,104,0.0,1.0,58,0.00,,---,0.00,VWS V14.01,2013-04-06 01:52:00,
2013-04-05 20:53:00,56.9,42.7,30.04,ESE,104,0.0,1.0,59,0.00,,---,0.00,VWS V14.01,2013-04-06 01:53:00,
2013-04-05 20:54:00,56.8,42.6,30.04,ESE,104,0.0,1.0,59,0.00,,---,0.00,VWS V14.01,2013-04-06 01:54:00,
2013-04-05 20:57:00,56.4,42.3,30.05,ESE,104,1.0,1.0,59,0.00,,---,0.00,VWS V14.01,2013-04-06 01:57:00,
2013-04-05 20:58:00,56.3,42.6,30.05,ESE,104,1.0,2.0,60,0.00,,---,0.00,VWS V14.01,2013-04-06 01:58:00,
2013-04-05 20:59:00,56.3,41.7,30.04,ESE,104,1.0,2.0,58,0.00,,---,0.00,VWS V14.01,2013-04-06 01:59:00,
2013-04-05 21:00:00,56.4,42.3,30.05,ESE,104,1.0,1.0,59,0.00,,---,0.00,VWS V14.01,2013-04-06 02:00:00,
2013-04-05 21:02:00,56.5,42.4,30.05,ESE,104,0.0,2.0,59,0.00,,---,0.00,VWS V14.01,2013-04-06 02:02:00,
2013-04-05 21:03:00,56.4,42.3,30.05,ESE,104,0.0,2.0,59,0.00,,---,0.00,VWS V14.01,2013-04-06 02:03:00,
2013-04-05 21:04:00,56.3,41.7,30.05,ESE,104,0.0,2.0,58,0.00,,---,0.00,VWS V14.01,2013-04-06 02:04:00,
2013-04-05 21:08:00,55.9,40.9,30.05,ESE,104,0.0,2.0,57,0.00,,---,0.00,VWS V14.01,2013-04-06 02:08:00,
2013-04-05 21:09:00,55.8,40.8,30.05,ESE,104,0.0,2.0,57,0.00,,---,0.00,VWS V14.01,2013-04-06 02:09:00,
2013-04-05 21:13:00,55.6,40.6,30.05,ESE,104,0.0,2.0,57,0.00,,---,0.00,VWS V14.01,2013-04-06 02:13:00,
2013-04-05 21:14:00,55.6,40.6,30.05,ESE,104,0.0,2.0,57,0.00,,---,0.00,VWS V14.01,2013-04-06 02:14:00,
2013-04-05 21:18:00,55.3,40.8,30.05,ESE,104,0.0,2.0,58,0.00,,---,0.00,VWS V14.01,2013-04-06 02:18:00,
2013-04-05 21:19:00,55.2,40.7,30.05,ESE,104,0.0,2.0,58,0.00,,---,0.00,VWS V14.01,2013-04-06 02:19:00,
2013-04-05 21:20:00,55.2,40.7,30.05,ESE,104,0.0,2.0,58,0.00,,---,0.00,VWS V14.01,2013-04-06 02:20:00,
2013-04-05 21:23:00,55.3,40.8,30.05,ESE,104,0.0,2.0,58,0.00,,---,0.00,VWS V14.01,2013-04-06 02:23:00,
2013-04-05 21:24:00,55.3,41.2,30.05,ESE,104,0.0,2.0,59,0.00,,---,0.00,VWS V14.01,2013-04-06 02:24:00,
2013-04-05 21:25:00,55.2,41.1,30.05,ESE,104,0.0,2.0,59,0.00,,---,0.00,VWS V14.01,2013-04-06 02:25:00,
2013-04-05 21:28:00,54.8,40.8,30.05,ESE,104,0.0,0.0,59,0.00,,---,0.00,VWS V14.01,2013-04-06 02:28:00,
2013-04-05 21:29:00,54.8,41.2,30.05,ESE,104,0.0,0.0,60,0.00,,---,0.00,VWS V14.01,2013-04-06 02:29:00,
2013-04-05 21:30:00,54.7,41.5,30.05,ESE,104,0.0,0.0,61,0.00,,---,0.00,VWS V14.01,2013-04-06 02:30:00,
2013-04-05 21:33:00,54.6,41.4,30.06,ESE,104,0.0,0.0,61,0.00,,---,0.00,VWS V14.01,2013-04-06 02:33:00,
2013-04-05 21:34:00,54.5,41.3,30.06,ESE,104,0.0,0.0,61,0.00,,---,0.00,VWS V14.01,2013-04-06 02:34:00,
2013-04-05 21:35:00,54.4,41.7,30.06,ESE,104,0.0,0.0,62,0.00,,---,0.00,VWS V14.01,2013-04-06 02:35:00,
2013-04-05 21:36:00,54.4,41.7,30.06,ESE,104,0.0,0.0,62,0.00,,---,0.00,VWS V14.01,2013-04-06 02:36:00,
2013-04-05 21:40:00,54.1,42.6,30.06,ESE,104,0.0,2.0,65,0.00,,---,0.00,VWS V14.01,2013-04-06 02:40:00,
2013-04-05 21:41:00,53.8,42.3,30.06,ESE,104,1.0,2.0,65,0.00,,---,0.00,VWS V14.01,2013-04-06 02:41:00,
2013-04-05 21:45:00,53.5,41.6,30.06,ESE,104,0.0,2.0,64,0.00,,---,0.00,VWS V14.01,2013-04-06 02:45:00,
2013-04-05 21:46:00,53.4,41.5,30.06,ESE,104,0.0,2.0,64,0.00,,---,0.00,VWS V14.01,2013-04-06 02:46:00,
2013-04-05 21:50:00,53.9,40.3,30.06,ESE,104,0.0,2.0,60,0.00,,---,0.00,VWS V14.01,2013-04-06 02:50:00,
2013-04-05 21:51:00,53.9,40.8,30.06,ESE,104,0.0,2.0,61,0.00,,---,0.00,VWS V14.01,2013-04-06 02:51:00,
2013-04-05 21:52:00,53.9,40.8,30.06,ESE,104,0.0,2.0,61,0.00,,---,0.00,VWS V14.01,2013-04-06 02:52:00,
2013-04-05 21:55:00,53.4,40.7,30.06,ESE,104,0.0,2.0,62,0.00,,---,0.00,VWS V14.01,2013-04-06 02:55:00,
2013-04-05 21:56:00,53.3,40.6,30.06,ESE,104,1.0,2.0,62,0.00,,---,0.00,VWS V14.01,2013-04-06 02:56:00,
2013-04-05 21:57:00,53.1,41.7,30.06,ESE,104,1.0,2.0,65,0.00,,---,0.00,VWS V14.01,2013-04-06 02:57:00,
2013-04-05 22:00:00,52.8,40.6,30.06,ESE,104,0.0,1.0,63,0.00,,---,0.00,VWS V14.01,2013-04-06 03:00:00,
2013-04-05 22:01:00,52.8,41.0,30.06,ESE,104,0.0,1.0,64,0.00,,---,0.00,VWS V14.01,2013-04-06 03:01:00,
2013-04-05 22:02:00,52.7,40.9,30.06,ESE,104,0.0,1.0,64,0.00,,---,0.00,VWS V14.01,2013-04-06 03:02:00,
2013-04-05 22:05:00,52.4,41.0,30.06,ESE,104,0.0,1.0,65,0.00,,---,0.00,VWS V14.01,2013-04-06 03:05:00,
2013-04-05 22:07:00,52.4,40.2,30.06,ESE,104,0.0,1.0,63,0.00,,---,0.00,VWS V14.01,2013-04-06 03:07:00,
2013-04-05 22:10:00,52.4,40.2,30.05,ESE,104,0.0,1.0,63,0.00,,---,0.00,VWS V14.01,2013-04-06 03:10:00,
2013-04-05 22:12:00,52.4,41.4,30.05,ESE,104,0.0,1.0,66,0.00,,---,0.00,VWS V14.01,2013-04-06 03:12:00,
2013-04-05 22:13:00,52.4,41.4,30.05,ESE,104,0.0,1.0,66,0.00,,---,0.00,VWS V14.01,2013-04-06 03:13:00,
2013-04-05 22:15:00,52.0,41.4,30.05,ESE,104,0.0,1.0,67,0.00,,---,0.00,VWS V14.01,2013-04-06 03:15:00,
2013-04-05 22:18:00,51.8,41.6,30.05,ESE,104,0.0,1.0,68,0.00,,---,0.00,VWS V14.01,2013-04-06 03:18:00,
2013-04-05 22:21:00,51.7,41.5,30.05,ESE,104,0.0,2.0,68,0.00,,---,0.00,VWS V14.01,2013-04-06 03:21:00,
2013-04-05 22:23:00,51.9,40.5,30.05,ESE,104,0.0,2.0,65,0.00,,---,0.00,VWS V14.01,2013-04-06 03:23:00,
2013-04-05 22:26:00,52.1,40.3,30.05,ESE,104,0.0,2.0,64,0.00,,---,0.00,VWS V14.01,2013-04-06 03:26:00,
2013-04-05 22:28:00,51.9,41.3,30.05,ESE,104,0.0,0.0,67,0.00,,---,0.00,VWS V14.01,2013-04-06 03:28:00,
2013-04-05 22:29:00,51.8,41.2,30.05,ESE,104,0.0,0.0,67,0.00,,---,0.00,VWS V14.01,2013-04-06 03:29:00,
2013-04-05 22:30:00,52.0,41.0,30.05,ESE,104,0.0,2.0,66,0.00,,---,0.00,VWS V14.01,2013-04-06 03:30:00,
2013-04-05 22:31:00,51.5,41.3,30.05,ESE,104,0.0,0.0,68,0.00,,---,0.00,VWS V14.01,2013-04-06 03:31:00,
2013-04-05 22:33:00,51.3,41.1,30.05,ESE,104,1.0,1.0,68,0.00,,---,0.00,VWS V14.01,2013-04-06 03:33:00,
2013-04-05 22:34:00,51.4,41.2,30.05,ESE,104,1.0,1.0,68,0.00,,---,0.00,VWS V14.01,2013-04-06 03:34:00,
2013-04-05 22:36:00,51.2,41.0,30.05,ESE,104,0.0,1.0,68,0.00,,---,0.00,VWS V14.01,2013-04-06 03:36:00,
2013-04-05 22:38:00,51.1,41.7,30.05,ESE,104,1.0,2.0,70,0.00,,---,0.00,VWS V14.01,2013-04-06 03:38:00,
2013-04-05 22:39:00,51.1,41.7,30.05,ESE,104,0.0,2.0,70,0.00,,---,0.00,VWS V14.01,2013-04-06 03:39:00,
2013-04-05 22:41:00,50.8,41.4,30.05,ESE,104,0.0,2.0,70,0.00,,---,0.00,VWS V14.01,2013-04-06 03:41:00,
2013-04-05 22:43:00,50.7,41.7,30.05,ESE,104,0.0,2.0,71,0.00,,---,0.00,VWS V14.01,2013-04-06 03:43:00,
2013-04-05 22:44:00,50.7,41.7,30.05,ESE,104,0.0,2.0,71,0.00,,---,0.00,VWS V14.01,2013-04-06 03:44:00,
2013-04-05 22:45:00,50.7,40.9,30.05,ESE,104,0.0,2.0,69,0.00,,---,0.00,VWS V14.01,2013-04-06 03:45:00,
2013-04-05 22:46:00,50.6,41.6,30.05,ESE,104,0.0,2.0,71,0.00,,---,0.00,VWS V14.01,2013-04-06 03:46:00,
2013-04-05 22:49:00,50.3,41.3,30.04,ESE,104,0.0,2.0,71,0.00,,---,0.00,VWS V14.01,2013-04-06 03:49:00,
2013-04-05 22:50:00,50.3,41.6,30.05,ESE,104,0.0,2.0,72,0.00,,---,0.00,VWS V14.01,2013-04-06 03:50:00,
2013-04-05 22:52:00,50.2,41.5,30.05,ESE,104,0.0,2.0,72,0.00,,---,0.00,VWS V14.01,2013-04-06 03:52:00,
2013-04-05 22:54:00,50.4,41.0,30.05,ESE,104,0.0,2.0,70,0.00,,---,0.00,VWS V14.01,2013-04-06 03:54:00,
2013-04-05 22:55:00,50.4,41.7,30.05,ESE,104,0.0,2.0,72,0.00,,---,0.00,VWS V14.01,2013-04-06 03:55:00,
2013-04-05 22:57:00,50.2,41.5,30.05,ESE,104,0.0,2.0,72,0.00,,---,0.00,VWS V14.01,2013-04-06 03:57:00,
2013-04-05 22:59:00,50.1,41.4,30.05,ESE,104,0.0,0.0,72,0.00,,---,0.00,VWS V14.01,2013-04-06 03:59:00,
2013-04-05 23:00:00,50.0,41.0,30.05,ESE,104,0.0,0.0,71,0.00,,---,0.00,VWS V14.01,2013-04-06 04:00:00,
2013-04-05 23:05:00,50.2,40.8,30.05,ESE,104,0.0,0.0,70,0.00,,---,0.00,VWS V14.01,2013-04-06 04:05:00,
2013-04-05 23:06:00,50.3,40.5,30.05,ESE,104,0.0,0.0,69,0.00,,---,0.00,VWS V14.01,2013-04-06 04:06:00,
2013-04-05 23:10:00,50.3,40.5,30.04,ESE,104,0.0,1.0,69,0.00,,---,0.00,VWS V14.01,2013-04-06 04:10:00,
2013-04-05 23:11:00,50.3,40.5,30.04,ESE,104,0.0,1.0,69,0.00,,---,0.00,VWS V14.01,2013-04-06 04:11:00,
2013-04-05 23:15:00,50.4,40.6,30.04,ESE,104,0.0,1.0,69,0.00,,---,0.00,VWS V14.01,2013-04-06 04:15:00,
2013-04-05 23:16:00,50.4,41.0,30.04,ESE,104,0.0,1.0,70,0.00,,---,0.00,VWS V14.01,2013-04-06 04:16:00,
2013-04-05 23:20:00,49.6,41.7,30.04,ESE,104,0.0,1.0,74,0.00,,---,0.00,VWS V14.01,2013-04-06 04:20:00,
2013-04-05 23:21:00,49.4,41.1,30.04,ESE,104,0.0,1.0,73,0.00,,---,0.00,VWS V14.01,2013-04-06 04:21:00,
2013-04-05 23:22:00,49.4,40.8,30.04,ESE,104,1.0,1.0,72,0.00,,---,0.00,VWS V14.01,2013-04-06 04:22:00,
2013-04-05 23:25:00,49.3,41.0,30.04,ESE,104,0.0,1.0,73,0.00,,---,0.00,VWS V14.01,2013-04-06 04:25:00,
2013-04-05 23:26:00,49.3,41.0,30.04,ESE,104,0.0,1.0,73,0.00,,---,0.00,VWS V14.01,2013-04-06 04:26:00,
2013-04-05 23:27:00,49.4,40.8,30.04,ESE,104,0.0,1.0,72,0.00,,---,0.00,VWS V14.01,2013-04-06 04:27:00,
2013-04-05 23:30:00,49.7,41.0,30.04,ESE,104,0.0,0.0,72,0.00,,---,0.00,VWS V14.01,2013-04-06 04:30:00,
2013-04-05 23:31:00,49.6,41.0,30.04,ESE,104,0.0,0.0,72,0.00,,---,0.00,VWS V14.01,2013-04-06 04:31:00,
2013-04-05 23:32:00,49.6,40.6,30.04,ESE,104,0.0,0.0,71,0.00,,---,0.00,VWS V14.01,2013-04-06 04:32:00,
2013-04-05 23:36:00,49.1,40.8,30.04,ESE,104,0.0,0.0,73,0.00,,---,0.00,VWS V14.01,2013-04-06 04:36:00,
2013-04-05 23:37:00,49.1,40.5,30.04,ESE,104,0.0,0.0,72,0.00,,---,0.00,VWS V14.01,2013-04-06 04:37:00,
2013-04-05 23:41:00,49.2,40.6,30.04,ESE,104,0.0,0.0,72,0.00,,---,0.00,VWS V14.01,2013-04-06 04:41:00,
2013-04-05 23:42:00,49.2,40.6,30.04,ESE,104,0.0,0.0,72,0.00,,---,0.00,VWS V14.01,2013-04-06 04:42:00,
2013-04-05 23:46:00,49.2,40.6,30.04,ESE,104,0.0,0.0,72,0.00,,---,0.00,VWS V14.01,2013-04-06 04:46:00,
2013-04-05 23:47:00,49.2,40.6,30.04,ESE,104,0.0,0.0,72,0.00,,---,0.00,VWS V14.01,2013-04-06 04:47:00,
2013-04-05 23:51:00,48.9,41.3,30.04,ESE,104,0.0,0.0,75,0.00,,---,0.00,VWS V14.01,2013-04-06 04:51:00,
2013-04-05 23:52:00,48.8,41.2,30.04,ESE,104,0.0,0.0,75,0.00,,---,0.00,VWS V14.01,2013-04-06 04:52:00,
2013-04-05 23:57:00,48.6,41.0,30.03,ESE,104,0.0,0.0,75,0.00,,---,0.00,VWS V14.01,2013-04-06 04:57:00,
2013-04-05 23:58:00,48.6,40.7,30.04,ESE,104,0.0,0.0,74,0.00,,---,0.00,VWS V14.01,2013-04-06 04:58:00,